<?xml version="1.0" encoding="UTF-8" standalone="no" ?>
<gpx xmlns="http://www.topografix.com/GPX/1/1" xmlns:xsi="http://www.w3.org/2001/XMLSchema-instance" xsi:schemaLocation="http://www.topografix.com/GPX/1/1 http://www.topografix.com/GPX/1/1/gpx.xsd" version="1.1" creator="VisuGPX - https://www.visugpx.com">
  <metadata>
    <name>autre</name>
    <desc><![CDATA[Guillaume et Pierre]]></desc>
  </metadata>
  <trk>
    <name><![CDATA[ACTIVE LOG: 16 FEV 2014 10:43]]></name>
    <trkseg>
      <trkpt lat="45.77184" lon="4.84622">
        <ele>140.01</ele>
        <time>2014-02-16T09:43:39Z</time>
      </trkpt>
      <trkpt lat="45.77177" lon="4.84615">
        <ele>139.05</ele>
        <time>2014-02-16T09:43:51Z</time>
      </trkpt>
      <trkpt lat="45.77176" lon="4.84606">
        <ele>138.57</ele>
        <time>2014-02-16T09:43:54Z</time>
      </trkpt>
      <trkpt lat="45.7717" lon="4.84577">
        <ele>139.53</ele>
        <time>2014-02-16T09:44:05Z</time>
      </trkpt>
      <trkpt lat="45.7717" lon="4.84577">
        <ele>139.53</ele>
        <time>2014-02-16T09:44:08Z</time>
      </trkpt>
      <trkpt lat="45.77166" lon="4.84601">
        <ele>140.01</ele>
        <time>2014-02-16T09:44:27Z</time>
      </trkpt>
      <trkpt lat="45.77213" lon="4.84578">
        <ele>140.49</ele>
        <time>2014-02-16T09:44:40Z</time>
      </trkpt>
      <trkpt lat="45.77247" lon="4.84575">
        <ele>140.97</ele>
        <time>2014-02-16T09:44:51Z</time>
      </trkpt>
      <trkpt lat="45.77269" lon="4.84589">
        <ele>141.45</ele>
        <time>2014-02-16T09:45:07Z</time>
      </trkpt>
      <trkpt lat="45.77286" lon="4.84607">
        <ele>142.41</ele>
        <time>2014-02-16T09:45:20Z</time>
      </trkpt>
      <trkpt lat="45.77286" lon="4.84665">
        <ele>143.37</ele>
        <time>2014-02-16T09:45:39Z</time>
      </trkpt>
      <trkpt lat="45.77332" lon="4.84642">
        <ele>143.37</ele>
        <time>2014-02-16T09:45:49Z</time>
      </trkpt>
      <trkpt lat="45.77319" lon="4.84661">
        <ele>144.34</ele>
        <time>2014-02-16T09:45:55Z</time>
      </trkpt>
      <trkpt lat="45.77322" lon="4.84679">
        <ele>144.82</ele>
        <time>2014-02-16T09:46:07Z</time>
      </trkpt>
      <trkpt lat="45.7739" lon="4.84635">
        <ele>145.78</ele>
        <time>2014-02-16T09:46:20Z</time>
      </trkpt>
      <trkpt lat="45.77406" lon="4.84665">
        <ele>147.22</ele>
        <time>2014-02-16T09:46:38Z</time>
      </trkpt>
      <trkpt lat="45.77412" lon="4.84711">
        <ele>148.18</ele>
        <time>2014-02-16T09:46:51Z</time>
      </trkpt>
      <trkpt lat="45.77495" lon="4.84663">
        <ele>149.62</ele>
        <time>2014-02-16T09:47:04Z</time>
      </trkpt>
      <trkpt lat="45.77534" lon="4.84674">
        <ele>150.58</ele>
        <time>2014-02-16T09:47:18Z</time>
      </trkpt>
      <trkpt lat="45.77533" lon="4.84717">
        <ele>152.03</ele>
        <time>2014-02-16T09:47:29Z</time>
      </trkpt>
      <trkpt lat="45.77552" lon="4.84703">
        <ele>152.99</ele>
        <time>2014-02-16T09:47:45Z</time>
      </trkpt>
      <trkpt lat="45.77566" lon="4.8471">
        <ele>154.91</ele>
        <time>2014-02-16T09:48:01Z</time>
      </trkpt>
      <trkpt lat="45.77663" lon="4.84574">
        <ele>157.79</ele>
        <time>2014-02-16T09:48:34Z</time>
      </trkpt>
      <trkpt lat="45.77687" lon="4.84553">
        <ele>158.27</ele>
        <time>2014-02-16T09:48:58Z</time>
      </trkpt>
      <trkpt lat="45.77701" lon="4.84537">
        <ele>160.2</ele>
        <time>2014-02-16T09:49:39Z</time>
      </trkpt>
      <trkpt lat="45.77705" lon="4.84532">
        <ele>160.2</ele>
        <time>2014-02-16T09:49:57Z</time>
      </trkpt>
      <trkpt lat="45.77712" lon="4.84526">
        <ele>162.6</ele>
        <time>2014-02-16T09:50:50Z</time>
      </trkpt>
      <trkpt lat="45.77716" lon="4.84533">
        <ele>163.08</ele>
        <time>2014-02-16T09:51:10Z</time>
      </trkpt>
      <trkpt lat="45.77713" lon="4.84542">
        <ele>163.08</ele>
        <time>2014-02-16T09:51:19Z</time>
      </trkpt>
      <trkpt lat="45.77683" lon="4.8458">
        <ele>163.08</ele>
        <time>2014-02-16T09:51:36Z</time>
      </trkpt>
      <trkpt lat="45.77665" lon="4.84608">
        <ele>162.12</ele>
        <time>2014-02-16T09:51:46Z</time>
      </trkpt>
      <trkpt lat="45.77641" lon="4.84645">
        <ele>162.12</ele>
        <time>2014-02-16T09:52:00Z</time>
      </trkpt>
      <trkpt lat="45.77621" lon="4.84679">
        <ele>162.6</ele>
        <time>2014-02-16T09:52:12Z</time>
      </trkpt>
      <trkpt lat="45.77604" lon="4.84716">
        <ele>162.12</ele>
        <time>2014-02-16T09:52:25Z</time>
      </trkpt>
      <trkpt lat="45.7759" lon="4.84755">
        <ele>161.16</ele>
        <time>2014-02-16T09:52:37Z</time>
      </trkpt>
      <trkpt lat="45.77571" lon="4.84803">
        <ele>160.2</ele>
        <time>2014-02-16T09:52:52Z</time>
      </trkpt>
      <trkpt lat="45.77551" lon="4.84849">
        <ele>161.64</ele>
        <time>2014-02-16T09:53:06Z</time>
      </trkpt>
      <trkpt lat="45.77539" lon="4.84886">
        <ele>161.64</ele>
        <time>2014-02-16T09:53:17Z</time>
      </trkpt>
      <trkpt lat="45.77523" lon="4.84929">
        <ele>162.12</ele>
        <time>2014-02-16T09:53:31Z</time>
      </trkpt>
      <trkpt lat="45.77505" lon="4.84969">
        <ele>161.64</ele>
        <time>2014-02-16T09:53:44Z</time>
      </trkpt>
      <trkpt lat="45.77488" lon="4.85006">
        <ele>162.6</ele>
        <time>2014-02-16T09:53:57Z</time>
      </trkpt>
      <trkpt lat="45.77465" lon="4.85054">
        <ele>162.12</ele>
        <time>2014-02-16T09:54:13Z</time>
      </trkpt>
      <trkpt lat="45.77448" lon="4.85094">
        <ele>161.64</ele>
        <time>2014-02-16T09:54:27Z</time>
      </trkpt>
      <trkpt lat="45.77427" lon="4.85136">
        <ele>161.64</ele>
        <time>2014-02-16T09:54:41Z</time>
      </trkpt>
      <trkpt lat="45.77405" lon="4.85147">
        <ele>161.64</ele>
        <time>2014-02-16T09:54:51Z</time>
      </trkpt>
      <trkpt lat="45.77375" lon="4.85153">
        <ele>162.6</ele>
        <time>2014-02-16T09:55:04Z</time>
      </trkpt>
      <trkpt lat="45.77355" lon="4.85181">
        <ele>162.6</ele>
        <time>2014-02-16T09:55:15Z</time>
      </trkpt>
      <trkpt lat="45.77348" lon="4.85208">
        <ele>162.12</ele>
        <time>2014-02-16T09:55:24Z</time>
      </trkpt>
      <trkpt lat="45.77351" lon="4.8525">
        <ele>162.12</ele>
        <time>2014-02-16T09:55:36Z</time>
      </trkpt>
      <trkpt lat="45.77349" lon="4.85257">
        <ele>162.12</ele>
        <time>2014-02-16T09:55:38Z</time>
      </trkpt>
      <trkpt lat="45.77331" lon="4.85306">
        <ele>162.12</ele>
        <time>2014-02-16T09:55:53Z</time>
      </trkpt>
      <trkpt lat="45.77315" lon="4.85344">
        <ele>163.08</ele>
        <time>2014-02-16T09:56:06Z</time>
      </trkpt>
      <trkpt lat="45.77301" lon="4.85386">
        <ele>162.12</ele>
        <time>2014-02-16T09:56:18Z</time>
      </trkpt>
      <trkpt lat="45.77296" lon="4.85412">
        <ele>162.6</ele>
        <time>2014-02-16T09:56:26Z</time>
      </trkpt>
      <trkpt lat="45.77321" lon="4.85439">
        <ele>162.6</ele>
        <time>2014-02-16T09:56:38Z</time>
      </trkpt>
      <trkpt lat="45.77338" lon="4.85462">
        <ele>162.12</ele>
        <time>2014-02-16T09:56:47Z</time>
      </trkpt>
      <trkpt lat="45.77353" lon="4.85482">
        <ele>162.6</ele>
        <time>2014-02-16T09:56:57Z</time>
      </trkpt>
      <trkpt lat="45.77354" lon="4.85497">
        <ele>162.12</ele>
        <time>2014-02-16T09:57:02Z</time>
      </trkpt>
      <trkpt lat="45.77356" lon="4.85544">
        <ele>162.12</ele>
        <time>2014-02-16T09:57:15Z</time>
      </trkpt>
      <trkpt lat="45.77363" lon="4.85592">
        <ele>162.6</ele>
        <time>2014-02-16T09:57:29Z</time>
      </trkpt>
      <trkpt lat="45.77366" lon="4.85621">
        <ele>162.6</ele>
        <time>2014-02-16T09:57:37Z</time>
      </trkpt>
      <trkpt lat="45.77381" lon="4.85639">
        <ele>162.12</ele>
        <time>2014-02-16T09:57:44Z</time>
      </trkpt>
      <trkpt lat="45.77392" lon="4.85674">
        <ele>162.6</ele>
        <time>2014-02-16T09:57:55Z</time>
      </trkpt>
      <trkpt lat="45.77397" lon="4.85718">
        <ele>162.6</ele>
        <time>2014-02-16T09:58:10Z</time>
      </trkpt>
      <trkpt lat="45.77406" lon="4.8575">
        <ele>163.08</ele>
        <time>2014-02-16T09:58:21Z</time>
      </trkpt>
      <trkpt lat="45.7742" lon="4.85781">
        <ele>163.08</ele>
        <time>2014-02-16T09:58:32Z</time>
      </trkpt>
      <trkpt lat="45.77458" lon="4.85813">
        <ele>163.08</ele>
        <time>2014-02-16T09:58:48Z</time>
      </trkpt>
      <trkpt lat="45.7748" lon="4.8582">
        <ele>163.08</ele>
        <time>2014-02-16T09:58:58Z</time>
      </trkpt>
      <trkpt lat="45.7751" lon="4.85831">
        <ele>163.08</ele>
        <time>2014-02-16T09:59:12Z</time>
      </trkpt>
      <trkpt lat="45.7754" lon="4.8584">
        <ele>163.08</ele>
        <time>2014-02-16T09:59:24Z</time>
      </trkpt>
      <trkpt lat="45.77573" lon="4.8584">
        <ele>163.56</ele>
        <time>2014-02-16T09:59:36Z</time>
      </trkpt>
      <trkpt lat="45.776" lon="4.85842">
        <ele>163.08</ele>
        <time>2014-02-16T09:59:47Z</time>
      </trkpt>
      <trkpt lat="45.77628" lon="4.8584">
        <ele>164.04</ele>
        <time>2014-02-16T09:59:59Z</time>
      </trkpt>
      <trkpt lat="45.77657" lon="4.85835">
        <ele>163.56</ele>
        <time>2014-02-16T10:00:12Z</time>
      </trkpt>
      <trkpt lat="45.77687" lon="4.85839">
        <ele>163.56</ele>
        <time>2014-02-16T10:00:25Z</time>
      </trkpt>
      <trkpt lat="45.77716" lon="4.85844">
        <ele>164.52</ele>
        <time>2014-02-16T10:00:38Z</time>
      </trkpt>
      <trkpt lat="45.77743" lon="4.85849">
        <ele>164.04</ele>
        <time>2014-02-16T10:00:49Z</time>
      </trkpt>
      <trkpt lat="45.77775" lon="4.85837">
        <ele>163.56</ele>
        <time>2014-02-16T10:01:01Z</time>
      </trkpt>
      <trkpt lat="45.77777" lon="4.85836">
        <ele>163.56</ele>
        <time>2014-02-16T10:01:02Z</time>
      </trkpt>
      <trkpt lat="45.77813" lon="4.85842">
        <ele>163.56</ele>
        <time>2014-02-16T10:01:17Z</time>
      </trkpt>
      <trkpt lat="45.77843" lon="4.85849">
        <ele>163.08</ele>
        <time>2014-02-16T10:01:29Z</time>
      </trkpt>
      <trkpt lat="45.77874" lon="4.85859">
        <ele>163.08</ele>
        <time>2014-02-16T10:01:42Z</time>
      </trkpt>
      <trkpt lat="45.77916" lon="4.85867">
        <ele>163.08</ele>
        <time>2014-02-16T10:01:56Z</time>
      </trkpt>
      <trkpt lat="45.77945" lon="4.85871">
        <ele>163.56</ele>
        <time>2014-02-16T10:02:08Z</time>
      </trkpt>
      <trkpt lat="45.77976" lon="4.85871">
        <ele>163.08</ele>
        <time>2014-02-16T10:02:20Z</time>
      </trkpt>
      <trkpt lat="45.78008" lon="4.85872">
        <ele>162.6</ele>
        <time>2014-02-16T10:02:32Z</time>
      </trkpt>
      <trkpt lat="45.78033" lon="4.85871">
        <ele>162.6</ele>
        <time>2014-02-16T10:02:43Z</time>
      </trkpt>
      <trkpt lat="45.78064" lon="4.85871">
        <ele>163.08</ele>
        <time>2014-02-16T10:02:56Z</time>
      </trkpt>
      <trkpt lat="45.78098" lon="4.85869">
        <ele>163.08</ele>
        <time>2014-02-16T10:03:09Z</time>
      </trkpt>
      <trkpt lat="45.78132" lon="4.85866">
        <ele>163.08</ele>
        <time>2014-02-16T10:03:23Z</time>
      </trkpt>
      <trkpt lat="45.78167" lon="4.85862">
        <ele>162.6</ele>
        <time>2014-02-16T10:03:36Z</time>
      </trkpt>
      <trkpt lat="45.78197" lon="4.8586">
        <ele>162.6</ele>
        <time>2014-02-16T10:03:48Z</time>
      </trkpt>
      <trkpt lat="45.78216" lon="4.85872">
        <ele>163.08</ele>
        <time>2014-02-16T10:03:59Z</time>
      </trkpt>
      <trkpt lat="45.78223" lon="4.85874">
        <ele>163.56</ele>
        <time>2014-02-16T10:04:01Z</time>
      </trkpt>
      <trkpt lat="45.78253" lon="4.85877">
        <ele>164.52</ele>
        <time>2014-02-16T10:04:13Z</time>
      </trkpt>
      <trkpt lat="45.78284" lon="4.85877">
        <ele>164.04</ele>
        <time>2014-02-16T10:04:25Z</time>
      </trkpt>
      <trkpt lat="45.78315" lon="4.85875">
        <ele>164.04</ele>
        <time>2014-02-16T10:04:35Z</time>
      </trkpt>
      <trkpt lat="45.78342" lon="4.85876">
        <ele>163.56</ele>
        <time>2014-02-16T10:04:46Z</time>
      </trkpt>
      <trkpt lat="45.78379" lon="4.85881">
        <ele>163.56</ele>
        <time>2014-02-16T10:05:00Z</time>
      </trkpt>
      <trkpt lat="45.78406" lon="4.85889">
        <ele>165</ele>
        <time>2014-02-16T10:05:12Z</time>
      </trkpt>
      <trkpt lat="45.78436" lon="4.85897">
        <ele>167.41</ele>
        <time>2014-02-16T10:05:24Z</time>
      </trkpt>
      <trkpt lat="45.7845" lon="4.859">
        <ele>167.41</ele>
        <time>2014-02-16T10:05:30Z</time>
      </trkpt>
      <trkpt lat="45.78455" lon="4.85885">
        <ele>167.41</ele>
        <time>2014-02-16T10:05:37Z</time>
      </trkpt>
      <trkpt lat="45.78457" lon="4.85849">
        <ele>165.48</ele>
        <time>2014-02-16T10:05:48Z</time>
      </trkpt>
      <trkpt lat="45.78459" lon="4.85802">
        <ele>165</ele>
        <time>2014-02-16T10:06:01Z</time>
      </trkpt>
      <trkpt lat="45.78447" lon="4.85753">
        <ele>164.04</ele>
        <time>2014-02-16T10:06:14Z</time>
      </trkpt>
      <trkpt lat="45.78433" lon="4.85702">
        <ele>162.6</ele>
        <time>2014-02-16T10:06:27Z</time>
      </trkpt>
      <trkpt lat="45.78414" lon="4.85647">
        <ele>163.56</ele>
        <time>2014-02-16T10:06:42Z</time>
      </trkpt>
      <trkpt lat="45.78423" lon="4.85609">
        <ele>163.56</ele>
        <time>2014-02-16T10:06:54Z</time>
      </trkpt>
      <trkpt lat="45.78438" lon="4.85566">
        <ele>163.56</ele>
        <time>2014-02-16T10:07:07Z</time>
      </trkpt>
      <trkpt lat="45.78435" lon="4.85522">
        <ele>163.56</ele>
        <time>2014-02-16T10:07:19Z</time>
      </trkpt>
      <trkpt lat="45.78423" lon="4.85479">
        <ele>164.04</ele>
        <time>2014-02-16T10:07:31Z</time>
      </trkpt>
      <trkpt lat="45.78411" lon="4.85429">
        <ele>163.56</ele>
        <time>2014-02-16T10:07:43Z</time>
      </trkpt>
      <trkpt lat="45.78404" lon="4.85384">
        <ele>164.04</ele>
        <time>2014-02-16T10:07:56Z</time>
      </trkpt>
      <trkpt lat="45.78389" lon="4.85338">
        <ele>163.08</ele>
        <time>2014-02-16T10:08:10Z</time>
      </trkpt>
      <trkpt lat="45.78376" lon="4.85304">
        <ele>164.04</ele>
        <time>2014-02-16T10:08:21Z</time>
      </trkpt>
      <trkpt lat="45.78361" lon="4.85272">
        <ele>164.52</ele>
        <time>2014-02-16T10:08:31Z</time>
      </trkpt>
      <trkpt lat="45.78344" lon="4.85227">
        <ele>164.04</ele>
        <time>2014-02-16T10:08:44Z</time>
      </trkpt>
      <trkpt lat="45.78328" lon="4.85188">
        <ele>164.04</ele>
        <time>2014-02-16T10:08:59Z</time>
      </trkpt>
      <trkpt lat="45.78303" lon="4.85146">
        <ele>164.52</ele>
        <time>2014-02-16T10:09:12Z</time>
      </trkpt>
      <trkpt lat="45.78283" lon="4.85108">
        <ele>165.48</ele>
        <time>2014-02-16T10:09:24Z</time>
      </trkpt>
      <trkpt lat="45.78259" lon="4.85072">
        <ele>164.52</ele>
        <time>2014-02-16T10:09:37Z</time>
      </trkpt>
      <trkpt lat="45.78242" lon="4.85037">
        <ele>165</ele>
        <time>2014-02-16T10:09:49Z</time>
      </trkpt>
      <trkpt lat="45.78226" lon="4.84998">
        <ele>165.96</ele>
        <time>2014-02-16T10:10:03Z</time>
      </trkpt>
      <trkpt lat="45.78213" lon="4.84969">
        <ele>166.45</ele>
        <time>2014-02-16T10:10:13Z</time>
      </trkpt>
      <trkpt lat="45.78188" lon="4.84939">
        <ele>166.45</ele>
        <time>2014-02-16T10:10:27Z</time>
      </trkpt>
      <trkpt lat="45.78164" lon="4.84916">
        <ele>166.45</ele>
        <time>2014-02-16T10:10:41Z</time>
      </trkpt>
      <trkpt lat="45.78138" lon="4.84888">
        <ele>166.45</ele>
        <time>2014-02-16T10:10:55Z</time>
      </trkpt>
      <trkpt lat="45.78122" lon="4.8486">
        <ele>166.93</ele>
        <time>2014-02-16T10:11:08Z</time>
      </trkpt>
      <trkpt lat="45.78096" lon="4.84827">
        <ele>167.41</ele>
        <time>2014-02-16T10:11:21Z</time>
      </trkpt>
      <trkpt lat="45.78074" lon="4.84812">
        <ele>165.48</ele>
        <time>2014-02-16T10:11:33Z</time>
      </trkpt>
      <trkpt lat="45.78045" lon="4.84766">
        <ele>165</ele>
        <time>2014-02-16T10:11:49Z</time>
      </trkpt>
      <trkpt lat="45.78026" lon="4.8475">
        <ele>164.52</ele>
        <time>2014-02-16T10:11:59Z</time>
      </trkpt>
      <trkpt lat="45.78005" lon="4.8473">
        <ele>164.52</ele>
        <time>2014-02-16T10:12:10Z</time>
      </trkpt>
      <trkpt lat="45.77977" lon="4.84707">
        <ele>164.04</ele>
        <time>2014-02-16T10:12:22Z</time>
      </trkpt>
      <trkpt lat="45.77948" lon="4.84687">
        <ele>162.6</ele>
        <time>2014-02-16T10:12:36Z</time>
      </trkpt>
      <trkpt lat="45.77917" lon="4.84669">
        <ele>162.6</ele>
        <time>2014-02-16T10:12:50Z</time>
      </trkpt>
      <trkpt lat="45.77886" lon="4.84651">
        <ele>163.56</ele>
        <time>2014-02-16T10:13:04Z</time>
      </trkpt>
      <trkpt lat="45.77857" lon="4.84638">
        <ele>162.6</ele>
        <time>2014-02-16T10:13:18Z</time>
      </trkpt>
      <trkpt lat="45.77828" lon="4.84618">
        <ele>163.08</ele>
        <time>2014-02-16T10:13:33Z</time>
      </trkpt>
      <trkpt lat="45.77797" lon="4.84599">
        <ele>164.04</ele>
        <time>2014-02-16T10:13:48Z</time>
      </trkpt>
      <trkpt lat="45.77768" lon="4.84589">
        <ele>163.08</ele>
        <time>2014-02-16T10:13:59Z</time>
      </trkpt>
      <trkpt lat="45.7774" lon="4.84588">
        <ele>162.12</ele>
        <time>2014-02-16T10:14:11Z</time>
      </trkpt>
      <trkpt lat="45.77736" lon="4.84583">
        <ele>162.12</ele>
        <time>2014-02-16T10:14:17Z</time>
      </trkpt>
      <trkpt lat="45.7776" lon="4.84564">
        <ele>161.64</ele>
        <time>2014-02-16T10:14:29Z</time>
      </trkpt>
      <trkpt lat="45.77798" lon="4.84544">
        <ele>161.64</ele>
        <time>2014-02-16T10:14:44Z</time>
      </trkpt>
      <trkpt lat="45.77816" lon="4.84529">
        <ele>161.64</ele>
        <time>2014-02-16T10:14:56Z</time>
      </trkpt>
      <trkpt lat="45.77816" lon="4.84523">
        <ele>161.64</ele>
        <time>2014-02-16T10:14:59Z</time>
      </trkpt>
      <trkpt lat="45.77819" lon="4.845">
        <ele>162.12</ele>
        <time>2014-02-16T10:15:07Z</time>
      </trkpt>
      <trkpt lat="45.77835" lon="4.84463">
        <ele>163.08</ele>
        <time>2014-02-16T10:15:18Z</time>
      </trkpt>
      <trkpt lat="45.77845" lon="4.8443">
        <ele>162.6</ele>
        <time>2014-02-16T10:15:28Z</time>
      </trkpt>
      <trkpt lat="45.77853" lon="4.84399">
        <ele>163.56</ele>
        <time>2014-02-16T10:15:38Z</time>
      </trkpt>
      <trkpt lat="45.77866" lon="4.84359">
        <ele>162.6</ele>
        <time>2014-02-16T10:15:48Z</time>
      </trkpt>
      <trkpt lat="45.7788" lon="4.84311">
        <ele>162.6</ele>
        <time>2014-02-16T10:16:01Z</time>
      </trkpt>
      <trkpt lat="45.77892" lon="4.84257">
        <ele>162.6</ele>
        <time>2014-02-16T10:16:12Z</time>
      </trkpt>
      <trkpt lat="45.779" lon="4.84211">
        <ele>161.64</ele>
        <time>2014-02-16T10:16:21Z</time>
      </trkpt>
      <trkpt lat="45.77914" lon="4.84174">
        <ele>161.16</ele>
        <time>2014-02-16T10:16:32Z</time>
      </trkpt>
      <trkpt lat="45.77928" lon="4.84148">
        <ele>160.2</ele>
        <time>2014-02-16T10:16:41Z</time>
      </trkpt>
      <trkpt lat="45.77942" lon="4.84144">
        <ele>160.2</ele>
        <time>2014-02-16T10:16:47Z</time>
      </trkpt>
      <trkpt lat="45.77964" lon="4.84153">
        <ele>159.72</ele>
        <time>2014-02-16T10:16:57Z</time>
      </trkpt>
      <trkpt lat="45.77993" lon="4.84169">
        <ele>159.72</ele>
        <time>2014-02-16T10:17:10Z</time>
      </trkpt>
      <trkpt lat="45.78024" lon="4.84193">
        <ele>159.72</ele>
        <time>2014-02-16T10:17:24Z</time>
      </trkpt>
      <trkpt lat="45.78028" lon="4.84197">
        <ele>159.72</ele>
        <time>2014-02-16T10:17:26Z</time>
      </trkpt>
      <trkpt lat="45.78048" lon="4.84205">
        <ele>158.75</ele>
        <time>2014-02-16T10:17:33Z</time>
      </trkpt>
      <trkpt lat="45.7806" lon="4.84206">
        <ele>159.24</ele>
        <time>2014-02-16T10:17:39Z</time>
      </trkpt>
      <trkpt lat="45.78081" lon="4.84216">
        <ele>159.72</ele>
        <time>2014-02-16T10:17:49Z</time>
      </trkpt>
      <trkpt lat="45.78106" lon="4.84234">
        <ele>159.72</ele>
        <time>2014-02-16T10:18:01Z</time>
      </trkpt>
      <trkpt lat="45.78136" lon="4.84258">
        <ele>160.2</ele>
        <time>2014-02-16T10:18:15Z</time>
      </trkpt>
      <trkpt lat="45.78164" lon="4.84287">
        <ele>160.2</ele>
        <time>2014-02-16T10:18:28Z</time>
      </trkpt>
      <trkpt lat="45.78192" lon="4.84311">
        <ele>160.2</ele>
        <time>2014-02-16T10:18:40Z</time>
      </trkpt>
      <trkpt lat="45.78208" lon="4.8432">
        <ele>160.2</ele>
        <time>2014-02-16T10:18:47Z</time>
      </trkpt>
      <trkpt lat="45.78233" lon="4.84339">
        <ele>159.72</ele>
        <time>2014-02-16T10:19:00Z</time>
      </trkpt>
      <trkpt lat="45.78263" lon="4.84372">
        <ele>159.72</ele>
        <time>2014-02-16T10:19:14Z</time>
      </trkpt>
      <trkpt lat="45.78291" lon="4.84401">
        <ele>160.2</ele>
        <time>2014-02-16T10:19:28Z</time>
      </trkpt>
      <trkpt lat="45.78324" lon="4.84435">
        <ele>160.2</ele>
        <time>2014-02-16T10:19:44Z</time>
      </trkpt>
      <trkpt lat="45.78345" lon="4.84463">
        <ele>159.72</ele>
        <time>2014-02-16T10:19:56Z</time>
      </trkpt>
      <trkpt lat="45.78367" lon="4.84493">
        <ele>160.68</ele>
        <time>2014-02-16T10:20:08Z</time>
      </trkpt>
      <trkpt lat="45.78394" lon="4.84524">
        <ele>160.2</ele>
        <time>2014-02-16T10:20:21Z</time>
      </trkpt>
      <trkpt lat="45.78417" lon="4.84563">
        <ele>159.72</ele>
        <time>2014-02-16T10:20:34Z</time>
      </trkpt>
      <trkpt lat="45.78439" lon="4.84588">
        <ele>160.68</ele>
        <time>2014-02-16T10:20:45Z</time>
      </trkpt>
      <trkpt lat="45.78456" lon="4.84605">
        <ele>160.2</ele>
        <time>2014-02-16T10:20:54Z</time>
      </trkpt>
      <trkpt lat="45.78468" lon="4.84621">
        <ele>160.2</ele>
        <time>2014-02-16T10:21:01Z</time>
      </trkpt>
      <trkpt lat="45.78489" lon="4.8465">
        <ele>160.2</ele>
        <time>2014-02-16T10:21:12Z</time>
      </trkpt>
      <trkpt lat="45.78509" lon="4.84679">
        <ele>161.16</ele>
        <time>2014-02-16T10:21:24Z</time>
      </trkpt>
      <trkpt lat="45.78518" lon="4.84699">
        <ele>161.16</ele>
        <time>2014-02-16T10:21:32Z</time>
      </trkpt>
      <trkpt lat="45.78539" lon="4.84698">
        <ele>161.64</ele>
        <time>2014-02-16T10:21:42Z</time>
      </trkpt>
      <trkpt lat="45.78557" lon="4.84688">
        <ele>164.52</ele>
        <time>2014-02-16T10:21:55Z</time>
      </trkpt>
      <trkpt lat="45.78568" lon="4.84674">
        <ele>167.41</ele>
        <time>2014-02-16T10:22:03Z</time>
      </trkpt>
      <trkpt lat="45.7858" lon="4.8466">
        <ele>170.77</ele>
        <time>2014-02-16T10:22:12Z</time>
      </trkpt>
      <trkpt lat="45.78592" lon="4.84649">
        <ele>174.14</ele>
        <time>2014-02-16T10:22:20Z</time>
      </trkpt>
      <trkpt lat="45.78599" lon="4.84643">
        <ele>177.02</ele>
        <time>2014-02-16T10:22:26Z</time>
      </trkpt>
      <trkpt lat="45.78605" lon="4.84638">
        <ele>178.94</ele>
        <time>2014-02-16T10:22:30Z</time>
      </trkpt>
      <trkpt lat="45.78616" lon="4.84626">
        <ele>181.83</ele>
        <time>2014-02-16T10:22:37Z</time>
      </trkpt>
      <trkpt lat="45.78638" lon="4.84621">
        <ele>185.67</ele>
        <time>2014-02-16T10:22:46Z</time>
      </trkpt>
      <trkpt lat="45.78655" lon="4.84608">
        <ele>189.04</ele>
        <time>2014-02-16T10:22:56Z</time>
      </trkpt>
      <trkpt lat="45.78664" lon="4.84595">
        <ele>192.4</ele>
        <time>2014-02-16T10:23:03Z</time>
      </trkpt>
      <trkpt lat="45.78666" lon="4.84594">
        <ele>192.4</ele>
        <time>2014-02-16T10:23:04Z</time>
      </trkpt>
      <trkpt lat="45.78669" lon="4.84594">
        <ele>193.36</ele>
        <time>2014-02-16T10:23:05Z</time>
      </trkpt>
      <trkpt lat="45.78681" lon="4.8458">
        <ele>196.25</ele>
        <time>2014-02-16T10:23:15Z</time>
      </trkpt>
      <trkpt lat="45.78698" lon="4.84571">
        <ele>199.13</ele>
        <time>2014-02-16T10:23:25Z</time>
      </trkpt>
      <trkpt lat="45.78717" lon="4.84565">
        <ele>202.49</ele>
        <time>2014-02-16T10:23:33Z</time>
      </trkpt>
      <trkpt lat="45.78746" lon="4.84559">
        <ele>205.86</ele>
        <time>2014-02-16T10:23:43Z</time>
      </trkpt>
      <trkpt lat="45.78748" lon="4.8455">
        <ele>206.34</ele>
        <time>2014-02-16T10:23:46Z</time>
      </trkpt>
      <trkpt lat="45.78712" lon="4.84533">
        <ele>209.22</ele>
        <time>2014-02-16T10:24:01Z</time>
      </trkpt>
      <trkpt lat="45.78683" lon="4.84524">
        <ele>210.67</ele>
        <time>2014-02-16T10:24:13Z</time>
      </trkpt>
      <trkpt lat="45.78663" lon="4.84515">
        <ele>214.03</ele>
        <time>2014-02-16T10:24:22Z</time>
      </trkpt>
      <trkpt lat="45.78662" lon="4.84509">
        <ele>214.99</ele>
        <time>2014-02-16T10:24:24Z</time>
      </trkpt>
      <trkpt lat="45.78667" lon="4.84484">
        <ele>218.84</ele>
        <time>2014-02-16T10:24:33Z</time>
      </trkpt>
      <trkpt lat="45.78669" lon="4.84481">
        <ele>218.84</ele>
        <time>2014-02-16T10:24:34Z</time>
      </trkpt>
      <trkpt lat="45.78682" lon="4.84458">
        <ele>222.68</ele>
        <time>2014-02-16T10:24:43Z</time>
      </trkpt>
      <trkpt lat="45.78685" lon="4.84453">
        <ele>223.64</ele>
        <time>2014-02-16T10:24:45Z</time>
      </trkpt>
      <trkpt lat="45.78695" lon="4.84441">
        <ele>227.01</ele>
        <time>2014-02-16T10:24:52Z</time>
      </trkpt>
      <trkpt lat="45.78716" lon="4.84422">
        <ele>229.89</ele>
        <time>2014-02-16T10:25:02Z</time>
      </trkpt>
      <trkpt lat="45.78744" lon="4.84382">
        <ele>232.3</ele>
        <time>2014-02-16T10:25:17Z</time>
      </trkpt>
      <trkpt lat="45.78762" lon="4.84351">
        <ele>235.18</ele>
        <time>2014-02-16T10:25:29Z</time>
      </trkpt>
      <trkpt lat="45.78775" lon="4.84336">
        <ele>239.02</ele>
        <time>2014-02-16T10:25:36Z</time>
      </trkpt>
      <trkpt lat="45.78777" lon="4.84334">
        <ele>239.02</ele>
        <time>2014-02-16T10:25:37Z</time>
      </trkpt>
      <trkpt lat="45.7879" lon="4.84325">
        <ele>240.47</ele>
        <time>2014-02-16T10:25:41Z</time>
      </trkpt>
      <trkpt lat="45.78791" lon="4.84326">
        <ele>241.43</ele>
        <time>2014-02-16T10:25:43Z</time>
      </trkpt>
      <trkpt lat="45.78768" lon="4.84347">
        <ele>240.95</ele>
        <time>2014-02-16T10:25:52Z</time>
      </trkpt>
      <trkpt lat="45.78751" lon="4.84369">
        <ele>236.62</ele>
        <time>2014-02-16T10:25:59Z</time>
      </trkpt>
      <trkpt lat="45.78738" lon="4.84383">
        <ele>234.22</ele>
        <time>2014-02-16T10:26:03Z</time>
      </trkpt>
      <trkpt lat="45.78732" lon="4.84395">
        <ele>232.78</ele>
        <time>2014-02-16T10:26:06Z</time>
      </trkpt>
      <trkpt lat="45.78713" lon="4.84418">
        <ele>231.33</ele>
        <time>2014-02-16T10:26:15Z</time>
      </trkpt>
      <trkpt lat="45.78695" lon="4.84438">
        <ele>230.85</ele>
        <time>2014-02-16T10:26:25Z</time>
      </trkpt>
      <trkpt lat="45.78698" lon="4.84441">
        <ele>230.37</ele>
        <time>2014-02-16T10:26:31Z</time>
      </trkpt>
      <trkpt lat="45.78723" lon="4.84415">
        <ele>231.81</ele>
        <time>2014-02-16T10:26:43Z</time>
      </trkpt>
      <trkpt lat="45.78744" lon="4.84389">
        <ele>232.78</ele>
        <time>2014-02-16T10:26:56Z</time>
      </trkpt>
      <trkpt lat="45.78759" lon="4.84363">
        <ele>234.22</ele>
        <time>2014-02-16T10:27:07Z</time>
      </trkpt>
      <trkpt lat="45.78772" lon="4.84348">
        <ele>237.58</ele>
        <time>2014-02-16T10:27:14Z</time>
      </trkpt>
      <trkpt lat="45.78774" lon="4.84345">
        <ele>237.58</ele>
        <time>2014-02-16T10:27:15Z</time>
      </trkpt>
      <trkpt lat="45.78786" lon="4.84331">
        <ele>240.95</ele>
        <time>2014-02-16T10:27:22Z</time>
      </trkpt>
      <trkpt lat="45.78786" lon="4.84323">
        <ele>242.39</ele>
        <time>2014-02-16T10:27:27Z</time>
      </trkpt>
      <trkpt lat="45.78776" lon="4.84296">
        <ele>244.31</ele>
        <time>2014-02-16T10:27:45Z</time>
      </trkpt>
      <trkpt lat="45.78762" lon="4.84268">
        <ele>244.31</ele>
        <time>2014-02-16T10:27:58Z</time>
      </trkpt>
      <trkpt lat="45.78748" lon="4.84241">
        <ele>244.79</ele>
        <time>2014-02-16T10:28:08Z</time>
      </trkpt>
      <trkpt lat="45.78726" lon="4.84203">
        <ele>242.39</ele>
        <time>2014-02-16T10:28:22Z</time>
      </trkpt>
      <trkpt lat="45.78705" lon="4.84153">
        <ele>239.99</ele>
        <time>2014-02-16T10:28:38Z</time>
      </trkpt>
      <trkpt lat="45.78687" lon="4.84119">
        <ele>239.02</ele>
        <time>2014-02-16T10:28:50Z</time>
      </trkpt>
      <trkpt lat="45.78667" lon="4.84081">
        <ele>238.54</ele>
        <time>2014-02-16T10:29:03Z</time>
      </trkpt>
      <trkpt lat="45.78657" lon="4.84062">
        <ele>237.1</ele>
        <time>2014-02-16T10:29:10Z</time>
      </trkpt>
      <trkpt lat="45.78644" lon="4.8402">
        <ele>236.62</ele>
        <time>2014-02-16T10:29:24Z</time>
      </trkpt>
      <trkpt lat="45.78629" lon="4.8399">
        <ele>237.1</ele>
        <time>2014-02-16T10:29:35Z</time>
      </trkpt>
      <trkpt lat="45.78607" lon="4.83949">
        <ele>237.1</ele>
        <time>2014-02-16T10:29:49Z</time>
      </trkpt>
      <trkpt lat="45.78588" lon="4.83912">
        <ele>236.62</ele>
        <time>2014-02-16T10:30:03Z</time>
      </trkpt>
      <trkpt lat="45.78578" lon="4.83889">
        <ele>236.62</ele>
        <time>2014-02-16T10:30:11Z</time>
      </trkpt>
      <trkpt lat="45.78562" lon="4.83867">
        <ele>236.62</ele>
        <time>2014-02-16T10:30:20Z</time>
      </trkpt>
      <trkpt lat="45.78549" lon="4.83849">
        <ele>236.62</ele>
        <time>2014-02-16T10:30:27Z</time>
      </trkpt>
      <trkpt lat="45.78536" lon="4.83831">
        <ele>237.1</ele>
        <time>2014-02-16T10:30:35Z</time>
      </trkpt>
      <trkpt lat="45.78524" lon="4.83808">
        <ele>238.06</ele>
        <time>2014-02-16T10:30:44Z</time>
      </trkpt>
      <trkpt lat="45.78518" lon="4.83791">
        <ele>237.58</ele>
        <time>2014-02-16T10:30:52Z</time>
      </trkpt>
      <trkpt lat="45.78504" lon="4.83761">
        <ele>237.58</ele>
        <time>2014-02-16T10:31:04Z</time>
      </trkpt>
      <trkpt lat="45.78497" lon="4.83736">
        <ele>238.06</ele>
        <time>2014-02-16T10:31:13Z</time>
      </trkpt>
      <trkpt lat="45.78492" lon="4.83722">
        <ele>238.06</ele>
        <time>2014-02-16T10:31:19Z</time>
      </trkpt>
      <trkpt lat="45.78485" lon="4.83702">
        <ele>239.99</ele>
        <time>2014-02-16T10:31:26Z</time>
      </trkpt>
      <trkpt lat="45.78474" lon="4.83662">
        <ele>239.99</ele>
        <time>2014-02-16T10:31:36Z</time>
      </trkpt>
      <trkpt lat="45.7847" lon="4.83634">
        <ele>240.47</ele>
        <time>2014-02-16T10:31:46Z</time>
      </trkpt>
      <trkpt lat="45.78451" lon="4.83609">
        <ele>239.51</ele>
        <time>2014-02-16T10:31:59Z</time>
      </trkpt>
      <trkpt lat="45.7843" lon="4.83578">
        <ele>237.58</ele>
        <time>2014-02-16T10:32:13Z</time>
      </trkpt>
      <trkpt lat="45.78406" lon="4.83547">
        <ele>235.18</ele>
        <time>2014-02-16T10:32:27Z</time>
      </trkpt>
      <trkpt lat="45.78404" lon="4.83545">
        <ele>235.18</ele>
        <time>2014-02-16T10:32:28Z</time>
      </trkpt>
      <trkpt lat="45.78382" lon="4.8351">
        <ele>231.81</ele>
        <time>2014-02-16T10:32:42Z</time>
      </trkpt>
      <trkpt lat="45.78356" lon="4.83482">
        <ele>231.33</ele>
        <time>2014-02-16T10:32:53Z</time>
      </trkpt>
      <trkpt lat="45.78345" lon="4.83479">
        <ele>230.37</ele>
        <time>2014-02-16T10:32:58Z</time>
      </trkpt>
      <trkpt lat="45.78317" lon="4.83499">
        <ele>229.41</ele>
        <time>2014-02-16T10:33:14Z</time>
      </trkpt>
      <trkpt lat="45.78316" lon="4.83516">
        <ele>227.01</ele>
        <time>2014-02-16T10:33:19Z</time>
      </trkpt>
      <trkpt lat="45.78307" lon="4.83547">
        <ele>225.09</ele>
        <time>2014-02-16T10:33:30Z</time>
      </trkpt>
      <trkpt lat="45.78305" lon="4.8356">
        <ele>222.68</ele>
        <time>2014-02-16T10:33:38Z</time>
      </trkpt>
      <trkpt lat="45.783" lon="4.83586">
        <ele>219.8</ele>
        <time>2014-02-16T10:33:49Z</time>
      </trkpt>
      <trkpt lat="45.78295" lon="4.83607">
        <ele>216.91</ele>
        <time>2014-02-16T10:33:59Z</time>
      </trkpt>
      <trkpt lat="45.78295" lon="4.83608">
        <ele>216.43</ele>
        <time>2014-02-16T10:34:00Z</time>
      </trkpt>
      <trkpt lat="45.78295" lon="4.83609">
        <ele>216.43</ele>
        <time>2014-02-16T10:34:01Z</time>
      </trkpt>
      <trkpt lat="45.7831" lon="4.83647">
        <ele>214.99</ele>
        <time>2014-02-16T10:34:13Z</time>
      </trkpt>
      <trkpt lat="45.78308" lon="4.83688">
        <ele>214.51</ele>
        <time>2014-02-16T10:34:24Z</time>
      </trkpt>
      <trkpt lat="45.78303" lon="4.83721">
        <ele>213.07</ele>
        <time>2014-02-16T10:34:33Z</time>
      </trkpt>
      <trkpt lat="45.78292" lon="4.83744">
        <ele>210.19</ele>
        <time>2014-02-16T10:34:41Z</time>
      </trkpt>
      <trkpt lat="45.78283" lon="4.83787">
        <ele>207.3</ele>
        <time>2014-02-16T10:34:53Z</time>
      </trkpt>
      <trkpt lat="45.78275" lon="4.83819">
        <ele>207.3</ele>
        <time>2014-02-16T10:35:02Z</time>
      </trkpt>
      <trkpt lat="45.78264" lon="4.83864">
        <ele>206.34</ele>
        <time>2014-02-16T10:35:15Z</time>
      </trkpt>
      <trkpt lat="45.78243" lon="4.83885">
        <ele>202.98</ele>
        <time>2014-02-16T10:35:27Z</time>
      </trkpt>
      <trkpt lat="45.78238" lon="4.83888">
        <ele>201.53</ele>
        <time>2014-02-16T10:35:30Z</time>
      </trkpt>
      <trkpt lat="45.78226" lon="4.83899">
        <ele>199.61</ele>
        <time>2014-02-16T10:35:36Z</time>
      </trkpt>
      <trkpt lat="45.78216" lon="4.83906">
        <ele>197.69</ele>
        <time>2014-02-16T10:35:41Z</time>
      </trkpt>
      <trkpt lat="45.78189" lon="4.83941">
        <ele>196.25</ele>
        <time>2014-02-16T10:35:59Z</time>
      </trkpt>
      <trkpt lat="45.78177" lon="4.83943">
        <ele>197.21</ele>
        <time>2014-02-16T10:36:10Z</time>
      </trkpt>
      <trkpt lat="45.78149" lon="4.83966">
        <ele>194.32</ele>
        <time>2014-02-16T10:36:24Z</time>
      </trkpt>
      <trkpt lat="45.78126" lon="4.83987">
        <ele>192.4</ele>
        <time>2014-02-16T10:36:34Z</time>
      </trkpt>
      <trkpt lat="45.78096" lon="4.84011">
        <ele>189.04</ele>
        <time>2014-02-16T10:36:46Z</time>
      </trkpt>
      <trkpt lat="45.78092" lon="4.84014">
        <ele>188.08</ele>
        <time>2014-02-16T10:36:48Z</time>
      </trkpt>
      <trkpt lat="45.78092" lon="4.84021">
        <ele>187.11</ele>
        <time>2014-02-16T10:36:50Z</time>
      </trkpt>
      <trkpt lat="45.7809" lon="4.84018">
        <ele>185.67</ele>
        <time>2014-02-16T10:36:55Z</time>
      </trkpt>
      <trkpt lat="45.7809" lon="4.8402">
        <ele>182.79</ele>
        <time>2014-02-16T10:37:05Z</time>
      </trkpt>
      <trkpt lat="45.78089" lon="4.8402">
        <ele>182.31</ele>
        <time>2014-02-16T10:37:06Z</time>
      </trkpt>
      <trkpt lat="45.78076" lon="4.84029">
        <ele>181.35</ele>
        <time>2014-02-16T10:37:15Z</time>
      </trkpt>
      <trkpt lat="45.78069" lon="4.84035">
        <ele>179.9</ele>
        <time>2014-02-16T10:37:18Z</time>
      </trkpt>
      <trkpt lat="45.78044" lon="4.84053">
        <ele>177.02</ele>
        <time>2014-02-16T10:37:29Z</time>
      </trkpt>
      <trkpt lat="45.78016" lon="4.84078">
        <ele>173.66</ele>
        <time>2014-02-16T10:37:41Z</time>
      </trkpt>
      <trkpt lat="45.7799" lon="4.84097">
        <ele>170.77</ele>
        <time>2014-02-16T10:37:52Z</time>
      </trkpt>
      <trkpt lat="45.77978" lon="4.84109">
        <ele>169.33</ele>
        <time>2014-02-16T10:37:57Z</time>
      </trkpt>
      <trkpt lat="45.77952" lon="4.84117">
        <ele>166.93</ele>
        <time>2014-02-16T10:38:09Z</time>
      </trkpt>
      <trkpt lat="45.77947" lon="4.84111">
        <ele>167.41</ele>
        <time>2014-02-16T10:38:14Z</time>
      </trkpt>
      <trkpt lat="45.77937" lon="4.84111">
        <ele>167.41</ele>
        <time>2014-02-16T10:38:18Z</time>
      </trkpt>
      <trkpt lat="45.77916" lon="4.84089">
        <ele>167.41</ele>
        <time>2014-02-16T10:38:31Z</time>
      </trkpt>
      <trkpt lat="45.77892" lon="4.84068">
        <ele>168.37</ele>
        <time>2014-02-16T10:38:45Z</time>
      </trkpt>
      <trkpt lat="45.77886" lon="4.84065">
        <ele>170.77</ele>
        <time>2014-02-16T10:38:50Z</time>
      </trkpt>
      <trkpt lat="45.77881" lon="4.84049">
        <ele>173.66</ele>
        <time>2014-02-16T10:38:59Z</time>
      </trkpt>
      <trkpt lat="45.77878" lon="4.84041">
        <ele>177.02</ele>
        <time>2014-02-16T10:39:04Z</time>
      </trkpt>
      <trkpt lat="45.77873" lon="4.84038">
        <ele>178.46</ele>
        <time>2014-02-16T10:39:08Z</time>
      </trkpt>
      <trkpt lat="45.77872" lon="4.84029">
        <ele>181.35</ele>
        <time>2014-02-16T10:39:13Z</time>
      </trkpt>
      <trkpt lat="45.77865" lon="4.84013">
        <ele>185.19</ele>
        <time>2014-02-16T10:39:23Z</time>
      </trkpt>
      <trkpt lat="45.77855" lon="4.8401">
        <ele>187.59</ele>
        <time>2014-02-16T10:39:28Z</time>
      </trkpt>
      <trkpt lat="45.77852" lon="4.84">
        <ele>190.96</ele>
        <time>2014-02-16T10:39:35Z</time>
      </trkpt>
      <trkpt lat="45.77851" lon="4.83999">
        <ele>190.96</ele>
        <time>2014-02-16T10:39:36Z</time>
      </trkpt>
      <trkpt lat="45.77852" lon="4.83996">
        <ele>191.92</ele>
        <time>2014-02-16T10:39:39Z</time>
      </trkpt>
      <trkpt lat="45.77834" lon="4.83984">
        <ele>195.77</ele>
        <time>2014-02-16T10:39:50Z</time>
      </trkpt>
      <trkpt lat="45.77832" lon="4.83984">
        <ele>195.77</ele>
        <time>2014-02-16T10:39:51Z</time>
      </trkpt>
      <trkpt lat="45.77826" lon="4.83984">
        <ele>197.21</ele>
        <time>2014-02-16T10:39:54Z</time>
      </trkpt>
      <trkpt lat="45.77814" lon="4.8399">
        <ele>199.13</ele>
        <time>2014-02-16T10:40:00Z</time>
      </trkpt>
      <trkpt lat="45.77812" lon="4.83992">
        <ele>200.09</ele>
        <time>2014-02-16T10:40:02Z</time>
      </trkpt>
      <trkpt lat="45.77805" lon="4.83995">
        <ele>202.49</ele>
        <time>2014-02-16T10:40:06Z</time>
      </trkpt>
      <trkpt lat="45.77794" lon="4.83987">
        <ele>205.38</ele>
        <time>2014-02-16T10:40:16Z</time>
      </trkpt>
      <trkpt lat="45.77791" lon="4.83976">
        <ele>207.3</ele>
        <time>2014-02-16T10:40:23Z</time>
      </trkpt>
      <trkpt lat="45.77789" lon="4.83971">
        <ele>208.74</ele>
        <time>2014-02-16T10:40:26Z</time>
      </trkpt>
      <trkpt lat="45.77787" lon="4.83969">
        <ele>210.19</ele>
        <time>2014-02-16T10:40:28Z</time>
      </trkpt>
      <trkpt lat="45.77785" lon="4.83969">
        <ele>211.15</ele>
        <time>2014-02-16T10:40:30Z</time>
      </trkpt>
      <trkpt lat="45.77781" lon="4.83966">
        <ele>212.11</ele>
        <time>2014-02-16T10:40:33Z</time>
      </trkpt>
      <trkpt lat="45.7777" lon="4.83942">
        <ele>215.47</ele>
        <time>2014-02-16T10:40:42Z</time>
      </trkpt>
      <trkpt lat="45.77766" lon="4.83935">
        <ele>216.43</ele>
        <time>2014-02-16T10:40:45Z</time>
      </trkpt>
      <trkpt lat="45.77759" lon="4.83915">
        <ele>219.8</ele>
        <time>2014-02-16T10:40:52Z</time>
      </trkpt>
      <trkpt lat="45.77755" lon="4.83906">
        <ele>221.72</ele>
        <time>2014-02-16T10:40:57Z</time>
      </trkpt>
      <trkpt lat="45.77753" lon="4.83901">
        <ele>223.64</ele>
        <time>2014-02-16T10:41:00Z</time>
      </trkpt>
      <trkpt lat="45.77754" lon="4.83892">
        <ele>225.57</ele>
        <time>2014-02-16T10:41:04Z</time>
      </trkpt>
      <trkpt lat="45.77748" lon="4.83886">
        <ele>228.93</ele>
        <time>2014-02-16T10:41:11Z</time>
      </trkpt>
      <trkpt lat="45.77751" lon="4.83883">
        <ele>228.93</ele>
        <time>2014-02-16T10:41:12Z</time>
      </trkpt>
      <trkpt lat="45.77754" lon="4.83883">
        <ele>229.41</ele>
        <time>2014-02-16T10:41:14Z</time>
      </trkpt>
      <trkpt lat="45.77765" lon="4.83875">
        <ele>227.49</ele>
        <time>2014-02-16T10:41:20Z</time>
      </trkpt>
      <trkpt lat="45.77767" lon="4.83886">
        <ele>225.09</ele>
        <time>2014-02-16T10:41:24Z</time>
      </trkpt>
      <trkpt lat="45.77776" lon="4.8388">
        <ele>222.68</ele>
        <time>2014-02-16T10:41:28Z</time>
      </trkpt>
      <trkpt lat="45.77787" lon="4.83871">
        <ele>220.28</ele>
        <time>2014-02-16T10:41:32Z</time>
      </trkpt>
      <trkpt lat="45.77788" lon="4.83869">
        <ele>219.32</ele>
        <time>2014-02-16T10:41:33Z</time>
      </trkpt>
      <trkpt lat="45.7779" lon="4.83852">
        <ele>222.68</ele>
        <time>2014-02-16T10:41:44Z</time>
      </trkpt>
      <trkpt lat="45.77783" lon="4.83844">
        <ele>225.57</ele>
        <time>2014-02-16T10:41:51Z</time>
      </trkpt>
      <trkpt lat="45.77782" lon="4.83846">
        <ele>227.01</ele>
        <time>2014-02-16T10:41:56Z</time>
      </trkpt>
      <trkpt lat="45.77721" lon="4.83901">
        <ele>227.97</ele>
        <time>2014-02-16T10:42:11Z</time>
      </trkpt>
      <trkpt lat="45.77692" lon="4.83888">
        <ele>227.01</ele>
        <time>2014-02-16T10:42:30Z</time>
      </trkpt>
      <trkpt lat="45.77677" lon="4.83857">
        <ele>227.49</ele>
        <time>2014-02-16T10:42:45Z</time>
      </trkpt>
      <trkpt lat="45.77662" lon="4.83828">
        <ele>226.53</ele>
        <time>2014-02-16T10:42:58Z</time>
      </trkpt>
      <trkpt lat="45.77648" lon="4.83797">
        <ele>227.49</ele>
        <time>2014-02-16T10:43:11Z</time>
      </trkpt>
      <trkpt lat="45.77634" lon="4.83767">
        <ele>227.01</ele>
        <time>2014-02-16T10:43:23Z</time>
      </trkpt>
      <trkpt lat="45.77624" lon="4.83736">
        <ele>227.97</ele>
        <time>2014-02-16T10:43:34Z</time>
      </trkpt>
      <trkpt lat="45.77624" lon="4.83703">
        <ele>227.49</ele>
        <time>2014-02-16T10:43:45Z</time>
      </trkpt>
      <trkpt lat="45.77624" lon="4.837">
        <ele>227.49</ele>
        <time>2014-02-16T10:43:46Z</time>
      </trkpt>
      <trkpt lat="45.7762" lon="4.8367">
        <ele>227.49</ele>
        <time>2014-02-16T10:43:56Z</time>
      </trkpt>
      <trkpt lat="45.77601" lon="4.83661">
        <ele>224.61</ele>
        <time>2014-02-16T10:44:08Z</time>
      </trkpt>
      <trkpt lat="45.776" lon="4.83657">
        <ele>221.24</ele>
        <time>2014-02-16T10:44:11Z</time>
      </trkpt>
      <trkpt lat="45.776" lon="4.83657">
        <ele>221.24</ele>
        <time>2014-02-16T10:44:12Z</time>
      </trkpt>
      <trkpt lat="45.77596" lon="4.83652">
        <ele>218.36</ele>
        <time>2014-02-16T10:44:16Z</time>
      </trkpt>
      <trkpt lat="45.77594" lon="4.8365">
        <ele>216.43</ele>
        <time>2014-02-16T10:44:18Z</time>
      </trkpt>
      <trkpt lat="45.77591" lon="4.83646">
        <ele>215.95</ele>
        <time>2014-02-16T10:44:20Z</time>
      </trkpt>
      <trkpt lat="45.77581" lon="4.8365">
        <ele>213.55</ele>
        <time>2014-02-16T10:44:27Z</time>
      </trkpt>
      <trkpt lat="45.77572" lon="4.8366">
        <ele>211.63</ele>
        <time>2014-02-16T10:44:32Z</time>
      </trkpt>
      <trkpt lat="45.7757" lon="4.83674">
        <ele>209.22</ele>
        <time>2014-02-16T10:44:39Z</time>
      </trkpt>
      <trkpt lat="45.77572" lon="4.8369">
        <ele>205.38</ele>
        <time>2014-02-16T10:44:46Z</time>
      </trkpt>
      <trkpt lat="45.77575" lon="4.83697">
        <ele>204.9</ele>
        <time>2014-02-16T10:44:48Z</time>
      </trkpt>
      <trkpt lat="45.77579" lon="4.83691">
        <ele>201.53</ele>
        <time>2014-02-16T10:44:57Z</time>
      </trkpt>
      <trkpt lat="45.77634" lon="4.83688">
        <ele>198.65</ele>
        <time>2014-02-16T10:45:10Z</time>
      </trkpt>
      <trkpt lat="45.7765" lon="4.8371">
        <ele>195.77</ele>
        <time>2014-02-16T10:45:21Z</time>
      </trkpt>
      <trkpt lat="45.77649" lon="4.83725">
        <ele>191.92</ele>
        <time>2014-02-16T10:45:30Z</time>
      </trkpt>
      <trkpt lat="45.77649" lon="4.83727">
        <ele>191.92</ele>
        <time>2014-02-16T10:45:31Z</time>
      </trkpt>
      <trkpt lat="45.77647" lon="4.83733">
        <ele>190</ele>
        <time>2014-02-16T10:45:35Z</time>
      </trkpt>
      <trkpt lat="45.77642" lon="4.83741">
        <ele>187.11</ele>
        <time>2014-02-16T10:45:40Z</time>
      </trkpt>
      <trkpt lat="45.7764" lon="4.83745">
        <ele>185.19</ele>
        <time>2014-02-16T10:45:43Z</time>
      </trkpt>
      <trkpt lat="45.77636" lon="4.83752">
        <ele>182.31</ele>
        <time>2014-02-16T10:45:47Z</time>
      </trkpt>
      <trkpt lat="45.77631" lon="4.83761">
        <ele>178.94</ele>
        <time>2014-02-16T10:45:54Z</time>
      </trkpt>
      <trkpt lat="45.77627" lon="4.83766">
        <ele>177.02</ele>
        <time>2014-02-16T10:45:58Z</time>
      </trkpt>
      <trkpt lat="45.77625" lon="4.83771">
        <ele>175.1</ele>
        <time>2014-02-16T10:46:02Z</time>
      </trkpt>
      <trkpt lat="45.77628" lon="4.83772">
        <ele>173.66</ele>
        <time>2014-02-16T10:46:06Z</time>
      </trkpt>
      <trkpt lat="45.77629" lon="4.83773">
        <ele>170.77</ele>
        <time>2014-02-16T10:46:10Z</time>
      </trkpt>
      <trkpt lat="45.77627" lon="4.83771">
        <ele>169.33</ele>
        <time>2014-02-16T10:46:18Z</time>
      </trkpt>
      <trkpt lat="45.77602" lon="4.83752">
        <ele>165.96</ele>
        <time>2014-02-16T10:46:29Z</time>
      </trkpt>
      <trkpt lat="45.77601" lon="4.83714">
        <ele>163.08</ele>
        <time>2014-02-16T10:46:39Z</time>
      </trkpt>
      <trkpt lat="45.77601" lon="4.83693">
        <ele>160.68</ele>
        <time>2014-02-16T10:46:46Z</time>
      </trkpt>
      <trkpt lat="45.77597" lon="4.83719">
        <ele>156.83</ele>
        <time>2014-02-16T10:46:56Z</time>
      </trkpt>
      <trkpt lat="45.77588" lon="4.83722">
        <ele>154.91</ele>
        <time>2014-02-16T10:47:00Z</time>
      </trkpt>
      <trkpt lat="45.77583" lon="4.83721">
        <ele>154.43</ele>
        <time>2014-02-16T10:47:02Z</time>
      </trkpt>
      <trkpt lat="45.77576" lon="4.83719">
        <ele>152.51</ele>
        <time>2014-02-16T10:47:05Z</time>
      </trkpt>
      <trkpt lat="45.77555" lon="4.83715">
        <ele>149.62</ele>
        <time>2014-02-16T10:47:15Z</time>
      </trkpt>
      <trkpt lat="45.7755" lon="4.83712">
        <ele>148.66</ele>
        <time>2014-02-16T10:47:17Z</time>
      </trkpt>
      <trkpt lat="45.77531" lon="4.83693">
        <ele>145.3</ele>
        <time>2014-02-16T10:47:27Z</time>
      </trkpt>
      <trkpt lat="45.77511" lon="4.83664">
        <ele>141.93</ele>
        <time>2014-02-16T10:47:37Z</time>
      </trkpt>
      <trkpt lat="45.77504" lon="4.83656">
        <ele>140.01</ele>
        <time>2014-02-16T10:47:41Z</time>
      </trkpt>
      <trkpt lat="45.77502" lon="4.83655">
        <ele>138.57</ele>
        <time>2014-02-16T10:47:43Z</time>
      </trkpt>
      <trkpt lat="45.77509" lon="4.83655">
        <ele>141.45</ele>
        <time>2014-02-16T10:47:52Z</time>
      </trkpt>
      <trkpt lat="45.77508" lon="4.83654">
        <ele>143.37</ele>
        <time>2014-02-16T10:47:56Z</time>
      </trkpt>
      <trkpt lat="45.7751" lon="4.83654">
        <ele>144.34</ele>
        <time>2014-02-16T10:47:59Z</time>
      </trkpt>
      <trkpt lat="45.77509" lon="4.83625">
        <ele>147.22</ele>
        <time>2014-02-16T10:48:13Z</time>
      </trkpt>
      <trkpt lat="45.77515" lon="4.83623">
        <ele>149.62</ele>
        <time>2014-02-16T10:48:22Z</time>
      </trkpt>
      <trkpt lat="45.77517" lon="4.83594">
        <ele>153.47</ele>
        <time>2014-02-16T10:48:35Z</time>
      </trkpt>
      <trkpt lat="45.7752" lon="4.83591">
        <ele>153.95</ele>
        <time>2014-02-16T10:48:37Z</time>
      </trkpt>
      <trkpt lat="45.7753" lon="4.83585">
        <ele>157.31</ele>
        <time>2014-02-16T10:48:44Z</time>
      </trkpt>
      <trkpt lat="45.77548" lon="4.8358">
        <ele>159.24</ele>
        <time>2014-02-16T10:48:58Z</time>
      </trkpt>
      <trkpt lat="45.7756" lon="4.83569">
        <ele>162.6</ele>
        <time>2014-02-16T10:49:07Z</time>
      </trkpt>
      <trkpt lat="45.77571" lon="4.83549">
        <ele>165.48</ele>
        <time>2014-02-16T10:49:20Z</time>
      </trkpt>
      <trkpt lat="45.7757" lon="4.83533">
        <ele>168.85</ele>
        <time>2014-02-16T10:49:30Z</time>
      </trkpt>
      <trkpt lat="45.7757" lon="4.8353">
        <ele>168.85</ele>
        <time>2014-02-16T10:49:32Z</time>
      </trkpt>
      <trkpt lat="45.77575" lon="4.83508">
        <ele>171.73</ele>
        <time>2014-02-16T10:49:40Z</time>
      </trkpt>
      <trkpt lat="45.77577" lon="4.83506">
        <ele>171.73</ele>
        <time>2014-02-16T10:49:41Z</time>
      </trkpt>
      <trkpt lat="45.77581" lon="4.835">
        <ele>172.69</ele>
        <time>2014-02-16T10:49:44Z</time>
      </trkpt>
      <trkpt lat="45.77586" lon="4.83476">
        <ele>173.17</ele>
        <time>2014-02-16T10:49:57Z</time>
      </trkpt>
      <trkpt lat="45.77587" lon="4.83471">
        <ele>174.62</ele>
        <time>2014-02-16T10:50:01Z</time>
      </trkpt>
      <trkpt lat="45.77588" lon="4.83466">
        <ele>176.54</ele>
        <time>2014-02-16T10:50:05Z</time>
      </trkpt>
      <trkpt lat="45.77631" lon="4.83634">
        <ele>177.5</ele>
        <time>2014-02-16T10:50:16Z</time>
      </trkpt>
      <trkpt lat="45.77516" lon="4.8361">
        <ele>176.54</ele>
        <time>2014-02-16T10:50:28Z</time>
      </trkpt>
      <trkpt lat="45.77491" lon="4.83617">
        <ele>174.14</ele>
        <time>2014-02-16T10:50:37Z</time>
      </trkpt>
      <trkpt lat="45.77479" lon="4.83613">
        <ele>172.21</ele>
        <time>2014-02-16T10:50:44Z</time>
      </trkpt>
      <trkpt lat="45.77447" lon="4.83595">
        <ele>175.1</ele>
        <time>2014-02-16T10:50:56Z</time>
      </trkpt>
      <trkpt lat="45.77445" lon="4.83592">
        <ele>175.58</ele>
        <time>2014-02-16T10:50:57Z</time>
      </trkpt>
      <trkpt lat="45.77442" lon="4.83587">
        <ele>177.02</ele>
        <time>2014-02-16T10:50:59Z</time>
      </trkpt>
      <trkpt lat="45.7744" lon="4.83577">
        <ele>177.98</ele>
        <time>2014-02-16T10:51:02Z</time>
      </trkpt>
      <trkpt lat="45.77436" lon="4.83552">
        <ele>180.87</ele>
        <time>2014-02-16T10:51:10Z</time>
      </trkpt>
      <trkpt lat="45.77436" lon="4.83544">
        <ele>183.75</ele>
        <time>2014-02-16T10:51:13Z</time>
      </trkpt>
      <trkpt lat="45.77437" lon="4.83523">
        <ele>187.11</ele>
        <time>2014-02-16T10:51:20Z</time>
      </trkpt>
      <trkpt lat="45.77452" lon="4.83493">
        <ele>189.04</ele>
        <time>2014-02-16T10:51:29Z</time>
      </trkpt>
      <trkpt lat="45.77466" lon="4.83493">
        <ele>189.52</ele>
        <time>2014-02-16T10:51:32Z</time>
      </trkpt>
      <trkpt lat="45.77487" lon="4.83489">
        <ele>190</ele>
        <time>2014-02-16T10:51:41Z</time>
      </trkpt>
      <trkpt lat="45.77487" lon="4.83485">
        <ele>190</ele>
        <time>2014-02-16T10:51:44Z</time>
      </trkpt>
      <trkpt lat="45.77457" lon="4.83482">
        <ele>191.92</ele>
        <time>2014-02-16T10:52:00Z</time>
      </trkpt>
      <trkpt lat="45.77434" lon="4.83474">
        <ele>190.96</ele>
        <time>2014-02-16T10:52:11Z</time>
      </trkpt>
      <trkpt lat="45.77401" lon="4.83476">
        <ele>187.59</ele>
        <time>2014-02-16T10:52:22Z</time>
      </trkpt>
      <trkpt lat="45.77368" lon="4.83471">
        <ele>184.23</ele>
        <time>2014-02-16T10:52:36Z</time>
      </trkpt>
      <trkpt lat="45.7734" lon="4.83472">
        <ele>180.87</ele>
        <time>2014-02-16T10:52:48Z</time>
      </trkpt>
      <trkpt lat="45.77313" lon="4.83471">
        <ele>177.5</ele>
        <time>2014-02-16T10:52:59Z</time>
      </trkpt>
      <trkpt lat="45.77295" lon="4.83472">
        <ele>175.1</ele>
        <time>2014-02-16T10:53:10Z</time>
      </trkpt>
      <trkpt lat="45.77267" lon="4.83452">
        <ele>174.62</ele>
        <time>2014-02-16T10:53:24Z</time>
      </trkpt>
      <trkpt lat="45.77252" lon="4.83451">
        <ele>174.62</ele>
        <time>2014-02-16T10:53:34Z</time>
      </trkpt>
      <trkpt lat="45.77241" lon="4.83446">
        <ele>174.14</ele>
        <time>2014-02-16T10:53:39Z</time>
      </trkpt>
      <trkpt lat="45.77213" lon="4.83415">
        <ele>172.21</ele>
        <time>2014-02-16T10:53:53Z</time>
      </trkpt>
      <trkpt lat="45.77197" lon="4.8338">
        <ele>171.25</ele>
        <time>2014-02-16T10:54:04Z</time>
      </trkpt>
      <trkpt lat="45.77185" lon="4.83328">
        <ele>168.85</ele>
        <time>2014-02-16T10:54:20Z</time>
      </trkpt>
      <trkpt lat="45.77165" lon="4.8333">
        <ele>167.89</ele>
        <time>2014-02-16T10:54:27Z</time>
      </trkpt>
      <trkpt lat="45.77123" lon="4.83335">
        <ele>165</ele>
        <time>2014-02-16T10:54:41Z</time>
      </trkpt>
      <trkpt lat="45.77112" lon="4.83338">
        <ele>162.12</ele>
        <time>2014-02-16T10:54:49Z</time>
      </trkpt>
      <trkpt lat="45.77104" lon="4.83342">
        <ele>159.72</ele>
        <time>2014-02-16T10:54:55Z</time>
      </trkpt>
      <trkpt lat="45.77093" lon="4.83346">
        <ele>156.83</ele>
        <time>2014-02-16T10:55:02Z</time>
      </trkpt>
      <trkpt lat="45.77079" lon="4.83333">
        <ele>153.47</ele>
        <time>2014-02-16T10:55:10Z</time>
      </trkpt>
      <trkpt lat="45.77048" lon="4.83341">
        <ele>152.03</ele>
        <time>2014-02-16T10:55:22Z</time>
      </trkpt>
      <trkpt lat="45.77023" lon="4.83336">
        <ele>150.58</ele>
        <time>2014-02-16T10:55:34Z</time>
      </trkpt>
      <trkpt lat="45.77019" lon="4.83343">
        <ele>148.66</ele>
        <time>2014-02-16T10:55:42Z</time>
      </trkpt>
      <trkpt lat="45.77017" lon="4.83324">
        <ele>145.78</ele>
        <time>2014-02-16T10:55:53Z</time>
      </trkpt>
      <trkpt lat="45.77023" lon="4.83318">
        <ele>141.93</ele>
        <time>2014-02-16T10:56:00Z</time>
      </trkpt>
      <trkpt lat="45.77023" lon="4.83318">
        <ele>141.93</ele>
        <time>2014-02-16T10:56:01Z</time>
      </trkpt>
      <trkpt lat="45.77022" lon="4.83319">
        <ele>138.57</ele>
        <time>2014-02-16T10:56:08Z</time>
      </trkpt>
      <trkpt lat="45.77016" lon="4.83314">
        <ele>135.68</ele>
        <time>2014-02-16T10:56:23Z</time>
      </trkpt>
      <trkpt lat="45.77015" lon="4.8331">
        <ele>135.68</ele>
        <time>2014-02-16T10:56:26Z</time>
      </trkpt>
      <trkpt lat="45.76979" lon="4.83271">
        <ele>137.13</ele>
        <time>2014-02-16T10:56:40Z</time>
      </trkpt>
      <trkpt lat="45.7696" lon="4.83233">
        <ele>137.61</ele>
        <time>2014-02-16T10:56:53Z</time>
      </trkpt>
      <trkpt lat="45.7697" lon="4.83192">
        <ele>139.05</ele>
        <time>2014-02-16T10:57:06Z</time>
      </trkpt>
      <trkpt lat="45.76957" lon="4.83188">
        <ele>139.05</ele>
        <time>2014-02-16T10:57:14Z</time>
      </trkpt>
      <trkpt lat="45.7694" lon="4.83199">
        <ele>136.64</ele>
        <time>2014-02-16T10:57:23Z</time>
      </trkpt>
      <trkpt lat="45.76924" lon="4.83202">
        <ele>135.2</ele>
        <time>2014-02-16T10:57:28Z</time>
      </trkpt>
      <trkpt lat="45.76905" lon="4.83182">
        <ele>133.76</ele>
        <time>2014-02-16T10:57:35Z</time>
      </trkpt>
      <trkpt lat="45.76857" lon="4.83184">
        <ele>132.32</ele>
        <time>2014-02-16T10:57:45Z</time>
      </trkpt>
      <trkpt lat="45.76852" lon="4.83183">
        <ele>132.32</ele>
        <time>2014-02-16T10:57:47Z</time>
      </trkpt>
      <trkpt lat="45.76821" lon="4.83181">
        <ele>130.4</ele>
        <time>2014-02-16T10:58:02Z</time>
      </trkpt>
      <trkpt lat="45.76819" lon="4.83179">
        <ele>130.4</ele>
        <time>2014-02-16T10:58:03Z</time>
      </trkpt>
      <trkpt lat="45.76819" lon="4.83166">
        <ele>130.4</ele>
        <time>2014-02-16T10:58:07Z</time>
      </trkpt>
      <trkpt lat="45.76816" lon="4.83115">
        <ele>129.43</ele>
        <time>2014-02-16T10:58:19Z</time>
      </trkpt>
      <trkpt lat="45.76816" lon="4.83086">
        <ele>129.92</ele>
        <time>2014-02-16T10:58:31Z</time>
      </trkpt>
      <trkpt lat="45.76817" lon="4.83034">
        <ele>128.95</ele>
        <time>2014-02-16T10:58:44Z</time>
      </trkpt>
      <trkpt lat="45.76815" lon="4.83027">
        <ele>128.95</ele>
        <time>2014-02-16T10:58:46Z</time>
      </trkpt>
      <trkpt lat="45.76806" lon="4.82971">
        <ele>127.99</ele>
        <time>2014-02-16T10:59:02Z</time>
      </trkpt>
      <trkpt lat="45.7678" lon="4.82939">
        <ele>127.03</ele>
        <time>2014-02-16T10:59:11Z</time>
      </trkpt>
      <trkpt lat="45.76751" lon="4.82908">
        <ele>127.03</ele>
        <time>2014-02-16T10:59:23Z</time>
      </trkpt>
      <trkpt lat="45.76719" lon="4.82934">
        <ele>126.55</ele>
        <time>2014-02-16T10:59:36Z</time>
      </trkpt>
      <trkpt lat="45.76688" lon="4.82969">
        <ele>128.47</ele>
        <time>2014-02-16T10:59:49Z</time>
      </trkpt>
      <trkpt lat="45.76672" lon="4.82994">
        <ele>128.95</ele>
        <time>2014-02-16T10:59:58Z</time>
      </trkpt>
      <trkpt lat="45.76658" lon="4.82971">
        <ele>130.88</ele>
        <time>2014-02-16T11:00:06Z</time>
      </trkpt>
      <trkpt lat="45.76653" lon="4.82942">
        <ele>131.84</ele>
        <time>2014-02-16T11:00:15Z</time>
      </trkpt>
      <trkpt lat="45.76646" lon="4.82921">
        <ele>131.84</ele>
        <time>2014-02-16T11:00:23Z</time>
      </trkpt>
      <trkpt lat="45.76641" lon="4.82901">
        <ele>131.36</ele>
        <time>2014-02-16T11:00:30Z</time>
      </trkpt>
      <trkpt lat="45.76647" lon="4.82871">
        <ele>130.4</ele>
        <time>2014-02-16T11:00:38Z</time>
      </trkpt>
      <trkpt lat="45.76642" lon="4.8286">
        <ele>129.92</ele>
        <time>2014-02-16T11:00:42Z</time>
      </trkpt>
      <trkpt lat="45.76628" lon="4.82831">
        <ele>129.92</ele>
        <time>2014-02-16T11:00:54Z</time>
      </trkpt>
      <trkpt lat="45.76617" lon="4.82807">
        <ele>130.88</ele>
        <time>2014-02-16T11:01:04Z</time>
      </trkpt>
      <trkpt lat="45.76598" lon="4.82773">
        <ele>132.8</ele>
        <time>2014-02-16T11:01:14Z</time>
      </trkpt>
      <trkpt lat="45.76598" lon="4.82744">
        <ele>133.28</ele>
        <time>2014-02-16T11:01:24Z</time>
      </trkpt>
      <trkpt lat="45.7659" lon="4.82705">
        <ele>136.64</ele>
        <time>2014-02-16T11:01:37Z</time>
      </trkpt>
      <trkpt lat="45.76589" lon="4.82685">
        <ele>139.53</ele>
        <time>2014-02-16T11:01:43Z</time>
      </trkpt>
      <trkpt lat="45.76567" lon="4.82669">
        <ele>142.41</ele>
        <time>2014-02-16T11:01:56Z</time>
      </trkpt>
      <trkpt lat="45.76542" lon="4.82664">
        <ele>146.26</ele>
        <time>2014-02-16T11:02:10Z</time>
      </trkpt>
      <trkpt lat="45.76539" lon="4.82661">
        <ele>147.22</ele>
        <time>2014-02-16T11:02:12Z</time>
      </trkpt>
      <trkpt lat="45.76528" lon="4.82657">
        <ele>150.1</ele>
        <time>2014-02-16T11:02:23Z</time>
      </trkpt>
      <trkpt lat="45.76526" lon="4.82655">
        <ele>150.1</ele>
        <time>2014-02-16T11:02:24Z</time>
      </trkpt>
      <trkpt lat="45.76496" lon="4.82655">
        <ele>153.47</ele>
        <time>2014-02-16T11:02:34Z</time>
      </trkpt>
      <trkpt lat="45.76469" lon="4.82636">
        <ele>156.83</ele>
        <time>2014-02-16T11:02:48Z</time>
      </trkpt>
      <trkpt lat="45.76458" lon="4.82626">
        <ele>160.2</ele>
        <time>2014-02-16T11:02:58Z</time>
      </trkpt>
      <trkpt lat="45.76418" lon="4.8262">
        <ele>163.56</ele>
        <time>2014-02-16T11:03:12Z</time>
      </trkpt>
      <trkpt lat="45.76393" lon="4.82604">
        <ele>166.93</ele>
        <time>2014-02-16T11:03:24Z</time>
      </trkpt>
      <trkpt lat="45.76365" lon="4.8259">
        <ele>169.81</ele>
        <time>2014-02-16T11:03:36Z</time>
      </trkpt>
      <trkpt lat="45.76343" lon="4.8257">
        <ele>172.69</ele>
        <time>2014-02-16T11:03:49Z</time>
      </trkpt>
      <trkpt lat="45.76342" lon="4.82569">
        <ele>172.69</ele>
        <time>2014-02-16T11:03:50Z</time>
      </trkpt>
      <trkpt lat="45.76336" lon="4.82562">
        <ele>176.06</ele>
        <time>2014-02-16T11:03:57Z</time>
      </trkpt>
      <trkpt lat="45.7632" lon="4.82545">
        <ele>177.98</ele>
        <time>2014-02-16T11:04:04Z</time>
      </trkpt>
      <trkpt lat="45.76303" lon="4.82516">
        <ele>181.35</ele>
        <time>2014-02-16T11:04:15Z</time>
      </trkpt>
      <trkpt lat="45.76268" lon="4.82505">
        <ele>184.71</ele>
        <time>2014-02-16T11:04:29Z</time>
      </trkpt>
      <trkpt lat="45.76262" lon="4.82495">
        <ele>186.63</ele>
        <time>2014-02-16T11:04:35Z</time>
      </trkpt>
      <trkpt lat="45.76252" lon="4.82474">
        <ele>190</ele>
        <time>2014-02-16T11:04:45Z</time>
      </trkpt>
      <trkpt lat="45.76246" lon="4.82466">
        <ele>191.92</ele>
        <time>2014-02-16T11:04:50Z</time>
      </trkpt>
      <trkpt lat="45.76237" lon="4.8245">
        <ele>196.25</ele>
        <time>2014-02-16T11:04:57Z</time>
      </trkpt>
      <trkpt lat="45.76236" lon="4.82449">
        <ele>196.25</ele>
        <time>2014-02-16T11:04:58Z</time>
      </trkpt>
      <trkpt lat="45.76233" lon="4.82442">
        <ele>198.17</ele>
        <time>2014-02-16T11:05:01Z</time>
      </trkpt>
      <trkpt lat="45.76224" lon="4.82422">
        <ele>201.53</ele>
        <time>2014-02-16T11:05:12Z</time>
      </trkpt>
      <trkpt lat="45.76223" lon="4.82419">
        <ele>203.46</ele>
        <time>2014-02-16T11:05:15Z</time>
      </trkpt>
      <trkpt lat="45.76234" lon="4.82421">
        <ele>206.34</ele>
        <time>2014-02-16T11:05:22Z</time>
      </trkpt>
      <trkpt lat="45.76237" lon="4.82422">
        <ele>206.34</ele>
        <time>2014-02-16T11:05:23Z</time>
      </trkpt>
      <trkpt lat="45.76244" lon="4.82424">
        <ele>207.78</ele>
        <time>2014-02-16T11:05:26Z</time>
      </trkpt>
      <trkpt lat="45.76267" lon="4.82434">
        <ele>210.67</ele>
        <time>2014-02-16T11:05:37Z</time>
      </trkpt>
      <trkpt lat="45.76269" lon="4.82434">
        <ele>211.15</ele>
        <time>2014-02-16T11:05:40Z</time>
      </trkpt>
      <trkpt lat="45.7626" lon="4.82422">
        <ele>212.59</ele>
        <time>2014-02-16T11:05:47Z</time>
      </trkpt>
      <trkpt lat="45.76252" lon="4.82416">
        <ele>214.51</ele>
        <time>2014-02-16T11:05:51Z</time>
      </trkpt>
      <trkpt lat="45.76229" lon="4.82397">
        <ele>217.88</ele>
        <time>2014-02-16T11:06:02Z</time>
      </trkpt>
      <trkpt lat="45.76224" lon="4.82384">
        <ele>221.24</ele>
        <time>2014-02-16T11:06:11Z</time>
      </trkpt>
      <trkpt lat="45.76226" lon="4.82379">
        <ele>222.2</ele>
        <time>2014-02-16T11:06:15Z</time>
      </trkpt>
      <trkpt lat="45.76233" lon="4.82375">
        <ele>223.64</ele>
        <time>2014-02-16T11:06:20Z</time>
      </trkpt>
      <trkpt lat="45.76243" lon="4.82377">
        <ele>225.09</ele>
        <time>2014-02-16T11:06:24Z</time>
      </trkpt>
      <trkpt lat="45.7626" lon="4.8238">
        <ele>227.01</ele>
        <time>2014-02-16T11:06:32Z</time>
      </trkpt>
      <trkpt lat="45.76272" lon="4.82383">
        <ele>228.45</ele>
        <time>2014-02-16T11:06:37Z</time>
      </trkpt>
      <trkpt lat="45.76276" lon="4.82377">
        <ele>229.41</ele>
        <time>2014-02-16T11:06:41Z</time>
      </trkpt>
      <trkpt lat="45.76253" lon="4.82362">
        <ele>231.81</ele>
        <time>2014-02-16T11:06:52Z</time>
      </trkpt>
      <trkpt lat="45.76231" lon="4.82345">
        <ele>234.7</ele>
        <time>2014-02-16T11:07:02Z</time>
      </trkpt>
      <trkpt lat="45.76232" lon="4.82344">
        <ele>235.66</ele>
        <time>2014-02-16T11:07:04Z</time>
      </trkpt>
      <trkpt lat="45.76246" lon="4.82346">
        <ele>239.02</ele>
        <time>2014-02-16T11:07:13Z</time>
      </trkpt>
      <trkpt lat="45.76264" lon="4.82348">
        <ele>242.39</ele>
        <time>2014-02-16T11:07:21Z</time>
      </trkpt>
      <trkpt lat="45.76274" lon="4.82348">
        <ele>243.35</ele>
        <time>2014-02-16T11:07:25Z</time>
      </trkpt>
      <trkpt lat="45.76284" lon="4.82342">
        <ele>244.31</ele>
        <time>2014-02-16T11:07:29Z</time>
      </trkpt>
      <trkpt lat="45.76278" lon="4.82331">
        <ele>246.23</ele>
        <time>2014-02-16T11:07:34Z</time>
      </trkpt>
      <trkpt lat="45.76268" lon="4.82323">
        <ele>247.68</ele>
        <time>2014-02-16T11:07:38Z</time>
      </trkpt>
      <trkpt lat="45.76258" lon="4.82322">
        <ele>250.08</ele>
        <time>2014-02-16T11:07:42Z</time>
      </trkpt>
      <trkpt lat="45.76244" lon="4.82309">
        <ele>253.44</ele>
        <time>2014-02-16T11:07:51Z</time>
      </trkpt>
      <trkpt lat="45.76242" lon="4.82302">
        <ele>254.89</ele>
        <time>2014-02-16T11:07:54Z</time>
      </trkpt>
      <trkpt lat="45.76242" lon="4.82301">
        <ele>255.37</ele>
        <time>2014-02-16T11:07:55Z</time>
      </trkpt>
      <trkpt lat="45.76258" lon="4.82305">
        <ele>258.73</ele>
        <time>2014-02-16T11:08:02Z</time>
      </trkpt>
      <trkpt lat="45.7626" lon="4.82306">
        <ele>261.14</ele>
        <time>2014-02-16T11:08:05Z</time>
      </trkpt>
      <trkpt lat="45.7626" lon="4.82304">
        <ele>262.1</ele>
        <time>2014-02-16T11:08:07Z</time>
      </trkpt>
      <trkpt lat="45.7628" lon="4.82306">
        <ele>263.06</ele>
        <time>2014-02-16T11:08:18Z</time>
      </trkpt>
      <trkpt lat="45.76296" lon="4.82306">
        <ele>262.1</ele>
        <time>2014-02-16T11:08:30Z</time>
      </trkpt>
      <trkpt lat="45.76292" lon="4.82316">
        <ele>259.69</ele>
        <time>2014-02-16T11:08:34Z</time>
      </trkpt>
      <trkpt lat="45.76285" lon="4.82319">
        <ele>258.25</ele>
        <time>2014-02-16T11:08:37Z</time>
      </trkpt>
      <trkpt lat="45.76251" lon="4.82323">
        <ele>255.85</ele>
        <time>2014-02-16T11:08:49Z</time>
      </trkpt>
      <trkpt lat="45.76236" lon="4.82327">
        <ele>255.37</ele>
        <time>2014-02-16T11:08:57Z</time>
      </trkpt>
      <trkpt lat="45.76265" lon="4.82346">
        <ele>251.52</ele>
        <time>2014-02-16T11:09:07Z</time>
      </trkpt>
      <trkpt lat="45.76268" lon="4.82349">
        <ele>251.52</ele>
        <time>2014-02-16T11:09:08Z</time>
      </trkpt>
      <trkpt lat="45.76274" lon="4.82352">
        <ele>249.12</ele>
        <time>2014-02-16T11:09:11Z</time>
      </trkpt>
      <trkpt lat="45.76257" lon="4.82333">
        <ele>250.08</ele>
        <time>2014-02-16T11:09:23Z</time>
      </trkpt>
      <trkpt lat="45.76247" lon="4.8233">
        <ele>252.48</ele>
        <time>2014-02-16T11:09:29Z</time>
      </trkpt>
      <trkpt lat="45.76238" lon="4.82322">
        <ele>254.89</ele>
        <time>2014-02-16T11:09:35Z</time>
      </trkpt>
      <trkpt lat="45.76238" lon="4.82322">
        <ele>257.77</ele>
        <time>2014-02-16T11:09:43Z</time>
      </trkpt>
      <trkpt lat="45.76263" lon="4.82334">
        <ele>259.69</ele>
        <time>2014-02-16T11:09:57Z</time>
      </trkpt>
      <trkpt lat="45.76282" lon="4.82327">
        <ele>261.62</ele>
        <time>2014-02-16T11:10:05Z</time>
      </trkpt>
      <trkpt lat="45.76287" lon="4.82309">
        <ele>264.02</ele>
        <time>2014-02-16T11:10:14Z</time>
      </trkpt>
      <trkpt lat="45.76283" lon="4.82307">
        <ele>266.9</ele>
        <time>2014-02-16T11:10:20Z</time>
      </trkpt>
      <trkpt lat="45.76301" lon="4.82274">
        <ele>268.83</ele>
        <time>2014-02-16T11:10:36Z</time>
      </trkpt>
      <trkpt lat="45.76317" lon="4.82219">
        <ele>269.31</ele>
        <time>2014-02-16T11:10:52Z</time>
      </trkpt>
      <trkpt lat="45.76322" lon="4.82212">
        <ele>269.31</ele>
        <time>2014-02-16T11:10:58Z</time>
      </trkpt>
      <trkpt lat="45.76328" lon="4.82214">
        <ele>269.31</ele>
        <time>2014-02-16T11:11:01Z</time>
      </trkpt>
      <trkpt lat="45.76352" lon="4.82212">
        <ele>269.31</ele>
        <time>2014-02-16T11:11:15Z</time>
      </trkpt>
      <trkpt lat="45.76389" lon="4.82216">
        <ele>269.31</ele>
        <time>2014-02-16T11:11:29Z</time>
      </trkpt>
      <trkpt lat="45.76399" lon="4.82185">
        <ele>268.83</ele>
        <time>2014-02-16T11:11:41Z</time>
      </trkpt>
      <trkpt lat="45.76401" lon="4.82173">
        <ele>268.83</ele>
        <time>2014-02-16T11:11:44Z</time>
      </trkpt>
      <trkpt lat="45.76369" lon="4.82141">
        <ele>268.35</ele>
        <time>2014-02-16T11:11:58Z</time>
      </trkpt>
      <trkpt lat="45.76353" lon="4.8212">
        <ele>267.86</ele>
        <time>2014-02-16T11:12:07Z</time>
      </trkpt>
      <trkpt lat="45.76328" lon="4.82083">
        <ele>266.42</ele>
        <time>2014-02-16T11:12:21Z</time>
      </trkpt>
      <trkpt lat="45.76311" lon="4.82044">
        <ele>265.46</ele>
        <time>2014-02-16T11:12:33Z</time>
      </trkpt>
      <trkpt lat="45.76306" lon="4.81997">
        <ele>262.58</ele>
        <time>2014-02-16T11:12:46Z</time>
      </trkpt>
      <trkpt lat="45.76314" lon="4.81962">
        <ele>261.62</ele>
        <time>2014-02-16T11:12:55Z</time>
      </trkpt>
      <trkpt lat="45.76318" lon="4.81935">
        <ele>261.62</ele>
        <time>2014-02-16T11:13:03Z</time>
      </trkpt>
      <trkpt lat="45.76326" lon="4.81903">
        <ele>261.62</ele>
        <time>2014-02-16T11:13:12Z</time>
      </trkpt>
      <trkpt lat="45.76336" lon="4.81863">
        <ele>262.1</ele>
        <time>2014-02-16T11:13:24Z</time>
      </trkpt>
      <trkpt lat="45.76336" lon="4.81856">
        <ele>262.58</ele>
        <time>2014-02-16T11:13:26Z</time>
      </trkpt>
      <trkpt lat="45.76338" lon="4.81821">
        <ele>262.1</ele>
        <time>2014-02-16T11:13:38Z</time>
      </trkpt>
      <trkpt lat="45.76341" lon="4.81778">
        <ele>264.02</ele>
        <time>2014-02-16T11:13:51Z</time>
      </trkpt>
      <trkpt lat="45.76343" lon="4.81736">
        <ele>264.98</ele>
        <time>2014-02-16T11:14:03Z</time>
      </trkpt>
      <trkpt lat="45.76343" lon="4.81698">
        <ele>266.42</ele>
        <time>2014-02-16T11:14:15Z</time>
      </trkpt>
      <trkpt lat="45.76332" lon="4.81652">
        <ele>267.86</ele>
        <time>2014-02-16T11:14:27Z</time>
      </trkpt>
      <trkpt lat="45.76331" lon="4.81607">
        <ele>268.83</ele>
        <time>2014-02-16T11:14:40Z</time>
      </trkpt>
      <trkpt lat="45.7633" lon="4.81556">
        <ele>269.79</ele>
        <time>2014-02-16T11:14:55Z</time>
      </trkpt>
      <trkpt lat="45.76328" lon="4.81513">
        <ele>270.27</ele>
        <time>2014-02-16T11:15:07Z</time>
      </trkpt>
      <trkpt lat="45.76321" lon="4.81476">
        <ele>270.75</ele>
        <time>2014-02-16T11:15:19Z</time>
      </trkpt>
      <trkpt lat="45.76313" lon="4.81436">
        <ele>271.71</ele>
        <time>2014-02-16T11:15:31Z</time>
      </trkpt>
      <trkpt lat="45.76301" lon="4.81394">
        <ele>273.15</ele>
        <time>2014-02-16T11:15:45Z</time>
      </trkpt>
      <trkpt lat="45.76299" lon="4.81352">
        <ele>273.63</ele>
        <time>2014-02-16T11:15:57Z</time>
      </trkpt>
      <trkpt lat="45.76313" lon="4.81332">
        <ele>272.67</ele>
        <time>2014-02-16T11:16:06Z</time>
      </trkpt>
      <trkpt lat="45.76324" lon="4.81323">
        <ele>272.19</ele>
        <time>2014-02-16T11:16:12Z</time>
      </trkpt>
      <trkpt lat="45.76356" lon="4.81328">
        <ele>269.31</ele>
        <time>2014-02-16T11:16:25Z</time>
      </trkpt>
      <trkpt lat="45.76384" lon="4.81319">
        <ele>267.38</ele>
        <time>2014-02-16T11:16:37Z</time>
      </trkpt>
      <trkpt lat="45.76386" lon="4.81317">
        <ele>266.9</ele>
        <time>2014-02-16T11:16:38Z</time>
      </trkpt>
      <trkpt lat="45.7641" lon="4.81289">
        <ele>264.02</ele>
        <time>2014-02-16T11:16:51Z</time>
      </trkpt>
      <trkpt lat="45.76416" lon="4.81286">
        <ele>262.58</ele>
        <time>2014-02-16T11:16:53Z</time>
      </trkpt>
      <trkpt lat="45.76438" lon="4.81265">
        <ele>261.14</ele>
        <time>2014-02-16T11:17:03Z</time>
      </trkpt>
      <trkpt lat="45.76457" lon="4.81241">
        <ele>258.73</ele>
        <time>2014-02-16T11:17:13Z</time>
      </trkpt>
      <trkpt lat="45.76473" lon="4.81215">
        <ele>256.81</ele>
        <time>2014-02-16T11:17:23Z</time>
      </trkpt>
      <trkpt lat="45.76486" lon="4.8118">
        <ele>254.41</ele>
        <time>2014-02-16T11:17:34Z</time>
      </trkpt>
      <trkpt lat="45.76502" lon="4.81129">
        <ele>252</ele>
        <time>2014-02-16T11:17:48Z</time>
      </trkpt>
      <trkpt lat="45.76521" lon="4.81081">
        <ele>250.08</ele>
        <time>2014-02-16T11:18:02Z</time>
      </trkpt>
      <trkpt lat="45.7654" lon="4.81062">
        <ele>248.16</ele>
        <time>2014-02-16T11:18:13Z</time>
      </trkpt>
      <trkpt lat="45.76562" lon="4.8104">
        <ele>245.27</ele>
        <time>2014-02-16T11:18:23Z</time>
      </trkpt>
      <trkpt lat="45.76577" lon="4.81016">
        <ele>243.35</ele>
        <time>2014-02-16T11:18:32Z</time>
      </trkpt>
      <trkpt lat="45.76586" lon="4.80999">
        <ele>241.91</ele>
        <time>2014-02-16T11:18:44Z</time>
      </trkpt>
      <trkpt lat="45.76599" lon="4.81005">
        <ele>240.47</ele>
        <time>2014-02-16T11:18:49Z</time>
      </trkpt>
      <trkpt lat="45.7662" lon="4.80994">
        <ele>239.99</ele>
        <time>2014-02-16T11:18:56Z</time>
      </trkpt>
      <trkpt lat="45.76649" lon="4.80968">
        <ele>236.62</ele>
        <time>2014-02-16T11:19:08Z</time>
      </trkpt>
      <trkpt lat="45.76652" lon="4.80966">
        <ele>236.14</ele>
        <time>2014-02-16T11:19:09Z</time>
      </trkpt>
      <trkpt lat="45.76692" lon="4.80949">
        <ele>233.74</ele>
        <time>2014-02-16T11:19:25Z</time>
      </trkpt>
      <trkpt lat="45.76706" lon="4.80946">
        <ele>232.3</ele>
        <time>2014-02-16T11:19:32Z</time>
      </trkpt>
      <trkpt lat="45.76711" lon="4.80946">
        <ele>232.3</ele>
        <time>2014-02-16T11:19:34Z</time>
      </trkpt>
      <trkpt lat="45.76737" lon="4.80953">
        <ele>230.85</ele>
        <time>2014-02-16T11:19:44Z</time>
      </trkpt>
      <trkpt lat="45.76756" lon="4.80957">
        <ele>228.45</ele>
        <time>2014-02-16T11:19:51Z</time>
      </trkpt>
      <trkpt lat="45.7679" lon="4.80964">
        <ele>227.01</ele>
        <time>2014-02-16T11:20:04Z</time>
      </trkpt>
      <trkpt lat="45.76809" lon="4.80965">
        <ele>224.61</ele>
        <time>2014-02-16T11:20:12Z</time>
      </trkpt>
      <trkpt lat="45.76834" lon="4.80972">
        <ele>223.64</ele>
        <time>2014-02-16T11:20:24Z</time>
      </trkpt>
      <trkpt lat="45.7685" lon="4.80975">
        <ele>221.72</ele>
        <time>2014-02-16T11:20:34Z</time>
      </trkpt>
      <trkpt lat="45.76851" lon="4.80974">
        <ele>222.2</ele>
        <time>2014-02-16T11:20:36Z</time>
      </trkpt>
      <trkpt lat="45.76856" lon="4.80971">
        <ele>221.72</ele>
        <time>2014-02-16T11:20:42Z</time>
      </trkpt>
      <trkpt lat="45.76878" lon="4.80976">
        <ele>219.32</ele>
        <time>2014-02-16T11:20:54Z</time>
      </trkpt>
      <trkpt lat="45.7691" lon="4.80979">
        <ele>218.36</ele>
        <time>2014-02-16T11:21:06Z</time>
      </trkpt>
      <trkpt lat="45.76913" lon="4.80979">
        <ele>218.36</ele>
        <time>2014-02-16T11:21:07Z</time>
      </trkpt>
      <trkpt lat="45.7694" lon="4.80995">
        <ele>215.95</ele>
        <time>2014-02-16T11:21:19Z</time>
      </trkpt>
      <trkpt lat="45.76971" lon="4.81004">
        <ele>213.07</ele>
        <time>2014-02-16T11:21:32Z</time>
      </trkpt>
      <trkpt lat="45.77" lon="4.80988">
        <ele>210.19</ele>
        <time>2014-02-16T11:21:44Z</time>
      </trkpt>
      <trkpt lat="45.7699" lon="4.80963">
        <ele>208.74</ele>
        <time>2014-02-16T11:21:53Z</time>
      </trkpt>
      <trkpt lat="45.76983" lon="4.80928">
        <ele>207.3</ele>
        <time>2014-02-16T11:22:03Z</time>
      </trkpt>
      <trkpt lat="45.77008" lon="4.8091">
        <ele>206.34</ele>
        <time>2014-02-16T11:22:12Z</time>
      </trkpt>
      <trkpt lat="45.77028" lon="4.80914">
        <ele>205.38</ele>
        <time>2014-02-16T11:22:19Z</time>
      </trkpt>
      <trkpt lat="45.77049" lon="4.80932">
        <ele>203.94</ele>
        <time>2014-02-16T11:22:30Z</time>
      </trkpt>
      <trkpt lat="45.77075" lon="4.80939">
        <ele>202.49</ele>
        <time>2014-02-16T11:22:42Z</time>
      </trkpt>
      <trkpt lat="45.77088" lon="4.80944">
        <ele>200.57</ele>
        <time>2014-02-16T11:22:48Z</time>
      </trkpt>
      <trkpt lat="45.77114" lon="4.80948">
        <ele>199.61</ele>
        <time>2014-02-16T11:22:58Z</time>
      </trkpt>
      <trkpt lat="45.7715" lon="4.80951">
        <ele>197.69</ele>
        <time>2014-02-16T11:23:11Z</time>
      </trkpt>
      <trkpt lat="45.7716" lon="4.80952">
        <ele>196.73</ele>
        <time>2014-02-16T11:23:15Z</time>
      </trkpt>
      <trkpt lat="45.77184" lon="4.80957">
        <ele>194.8</ele>
        <time>2014-02-16T11:23:24Z</time>
      </trkpt>
      <trkpt lat="45.77208" lon="4.80964">
        <ele>194.32</ele>
        <time>2014-02-16T11:23:32Z</time>
      </trkpt>
      <trkpt lat="45.7722" lon="4.80966">
        <ele>193.36</ele>
        <time>2014-02-16T11:23:37Z</time>
      </trkpt>
      <trkpt lat="45.77232" lon="4.8094">
        <ele>189.52</ele>
        <time>2014-02-16T11:23:48Z</time>
      </trkpt>
      <trkpt lat="45.7723" lon="4.80938">
        <ele>189.52</ele>
        <time>2014-02-16T11:23:49Z</time>
      </trkpt>
      <trkpt lat="45.77223" lon="4.80932">
        <ele>187.11</ele>
        <time>2014-02-16T11:23:53Z</time>
      </trkpt>
      <trkpt lat="45.77205" lon="4.80933">
        <ele>184.23</ele>
        <time>2014-02-16T11:24:02Z</time>
      </trkpt>
      <trkpt lat="45.7719" lon="4.80917">
        <ele>182.79</ele>
        <time>2014-02-16T11:24:13Z</time>
      </trkpt>
      <trkpt lat="45.7718" lon="4.80903">
        <ele>179.42</ele>
        <time>2014-02-16T11:24:21Z</time>
      </trkpt>
      <trkpt lat="45.77183" lon="4.80894">
        <ele>176.54</ele>
        <time>2014-02-16T11:24:25Z</time>
      </trkpt>
      <trkpt lat="45.77184" lon="4.80893">
        <ele>176.54</ele>
        <time>2014-02-16T11:24:26Z</time>
      </trkpt>
      <trkpt lat="45.77188" lon="4.80885">
        <ele>173.17</ele>
        <time>2014-02-16T11:24:31Z</time>
      </trkpt>
      <trkpt lat="45.77194" lon="4.80878">
        <ele>169.81</ele>
        <time>2014-02-16T11:24:36Z</time>
      </trkpt>
      <trkpt lat="45.77196" lon="4.80876">
        <ele>169.33</ele>
        <time>2014-02-16T11:24:38Z</time>
      </trkpt>
      <trkpt lat="45.77208" lon="4.80867">
        <ele>165.96</ele>
        <time>2014-02-16T11:24:47Z</time>
      </trkpt>
      <trkpt lat="45.77225" lon="4.80861">
        <ele>163.08</ele>
        <time>2014-02-16T11:24:56Z</time>
      </trkpt>
      <trkpt lat="45.77249" lon="4.80852">
        <ele>160.68</ele>
        <time>2014-02-16T11:25:10Z</time>
      </trkpt>
      <trkpt lat="45.77268" lon="4.80846">
        <ele>159.72</ele>
        <time>2014-02-16T11:25:19Z</time>
      </trkpt>
      <trkpt lat="45.77283" lon="4.80844">
        <ele>159.24</ele>
        <time>2014-02-16T11:25:25Z</time>
      </trkpt>
      <trkpt lat="45.77313" lon="4.80824">
        <ele>156.83</ele>
        <time>2014-02-16T11:25:39Z</time>
      </trkpt>
      <trkpt lat="45.77341" lon="4.80829">
        <ele>155.39</ele>
        <time>2014-02-16T11:25:52Z</time>
      </trkpt>
      <trkpt lat="45.77358" lon="4.80864">
        <ele>154.91</ele>
        <time>2014-02-16T11:26:04Z</time>
      </trkpt>
      <trkpt lat="45.77373" lon="4.80893">
        <ele>154.43</ele>
        <time>2014-02-16T11:26:18Z</time>
      </trkpt>
      <trkpt lat="45.77372" lon="4.80894">
        <ele>154.43</ele>
        <time>2014-02-16T11:26:33Z</time>
      </trkpt>
      <trkpt lat="45.77385" lon="4.80929">
        <ele>154.91</ele>
        <time>2014-02-16T11:26:45Z</time>
      </trkpt>
      <trkpt lat="45.7739" lon="4.80942">
        <ele>154.91</ele>
        <time>2014-02-16T11:26:53Z</time>
      </trkpt>
      <trkpt lat="45.77397" lon="4.80942">
        <ele>155.39</ele>
        <time>2014-02-16T11:26:57Z</time>
      </trkpt>
      <trkpt lat="45.77419" lon="4.80925">
        <ele>154.43</ele>
        <time>2014-02-16T11:27:10Z</time>
      </trkpt>
      <trkpt lat="45.77435" lon="4.80909">
        <ele>154.91</ele>
        <time>2014-02-16T11:27:20Z</time>
      </trkpt>
      <trkpt lat="45.77471" lon="4.80883">
        <ele>154.91</ele>
        <time>2014-02-16T11:27:34Z</time>
      </trkpt>
      <trkpt lat="45.77477" lon="4.8088">
        <ele>154.91</ele>
        <time>2014-02-16T11:27:36Z</time>
      </trkpt>
      <trkpt lat="45.77486" lon="4.80895">
        <ele>156.83</ele>
        <time>2014-02-16T11:27:43Z</time>
      </trkpt>
      <trkpt lat="45.77483" lon="4.80942">
        <ele>157.79</ele>
        <time>2014-02-16T11:27:57Z</time>
      </trkpt>
      <trkpt lat="45.77481" lon="4.80983">
        <ele>157.79</ele>
        <time>2014-02-16T11:28:08Z</time>
      </trkpt>
      <trkpt lat="45.77476" lon="4.81033">
        <ele>156.83</ele>
        <time>2014-02-16T11:28:22Z</time>
      </trkpt>
      <trkpt lat="45.77473" lon="4.81077">
        <ele>156.83</ele>
        <time>2014-02-16T11:28:35Z</time>
      </trkpt>
      <trkpt lat="45.77467" lon="4.81105">
        <ele>155.87</ele>
        <time>2014-02-16T11:28:47Z</time>
      </trkpt>
      <trkpt lat="45.77476" lon="4.81106">
        <ele>156.35</ele>
        <time>2014-02-16T11:29:11Z</time>
      </trkpt>
      <trkpt lat="45.77492" lon="4.81135">
        <ele>155.39</ele>
        <time>2014-02-16T11:29:23Z</time>
      </trkpt>
      <trkpt lat="45.77492" lon="4.81143">
        <ele>155.87</ele>
        <time>2014-02-16T11:29:26Z</time>
      </trkpt>
      <trkpt lat="45.77491" lon="4.81202">
        <ele>155.87</ele>
        <time>2014-02-16T11:29:45Z</time>
      </trkpt>
      <trkpt lat="45.77486" lon="4.81244">
        <ele>155.87</ele>
        <time>2014-02-16T11:29:58Z</time>
      </trkpt>
      <trkpt lat="45.77486" lon="4.81284">
        <ele>157.31</ele>
        <time>2014-02-16T11:30:11Z</time>
      </trkpt>
      <trkpt lat="45.77481" lon="4.81332">
        <ele>156.35</ele>
        <time>2014-02-16T11:30:25Z</time>
      </trkpt>
      <trkpt lat="45.7748" lon="4.81379">
        <ele>157.31</ele>
        <time>2014-02-16T11:30:39Z</time>
      </trkpt>
      <trkpt lat="45.77486" lon="4.81425">
        <ele>155.87</ele>
        <time>2014-02-16T11:30:53Z</time>
      </trkpt>
      <trkpt lat="45.77509" lon="4.81532">
        <ele>156.35</ele>
        <time>2014-02-16T11:31:15Z</time>
      </trkpt>
    </trkseg>
  </trk>
</gpx>